<?xml version="1.0" encoding="UTF-8" standalone="no" ?>
<gpx xmlns="http://www.topografix.com/GPX/1/1" xmlns:xsi="http://www.w3.org/2001/XMLSchema-instance" xsi:schemaLocation="http://www.topografix.com/GPX/1/1 http://www.topografix.com/GPX/1/1/gpx.xsd" version="1.1" creator="VisuGPX - https://www.visugpx.com">
  <metadata>
    <name>83 - Me - le Muy </name>
    <desc><![CDATA[83 - Me - le Muy : 2 rivières 
2022-04-27]]></desc>
  </metadata>
  <trk>
    <name><![CDATA[le muy 2 rivières 2022-04-27-01]]></name>
    <trkseg>
      <trkpt lat="43.47651" lon="6.56521">
        <ele>36.2</ele>
        <time>2022-04-27T12:07:35Z</time>
      </trkpt>
      <trkpt lat="43.47651" lon="6.56521">
        <ele>36.2</ele>
        <time>2022-04-27T12:07:36Z</time>
      </trkpt>
      <trkpt lat="43.47643" lon="6.56514">
        <ele>35.8</ele>
        <time>2022-04-27T12:08:27Z</time>
      </trkpt>
      <trkpt lat="43.47652" lon="6.56514">
        <ele>35.9</ele>
        <time>2022-04-27T12:08:49Z</time>
      </trkpt>
      <trkpt lat="43.47644" lon="6.56518">
        <ele>35.4</ele>
        <time>2022-04-27T12:12:52Z</time>
      </trkpt>
      <trkpt lat="43.47634" lon="6.56514">
        <ele>35.4</ele>
        <time>2022-04-27T12:13:01Z</time>
      </trkpt>
      <trkpt lat="43.47625" lon="6.5651">
        <ele>35.7</ele>
        <time>2022-04-27T12:13:11Z</time>
      </trkpt>
      <trkpt lat="43.47616" lon="6.56509">
        <ele>35.3</ele>
        <time>2022-04-27T12:13:21Z</time>
      </trkpt>
      <trkpt lat="43.47617" lon="6.56522">
        <ele>34.5</ele>
        <time>2022-04-27T12:13:42Z</time>
      </trkpt>
      <trkpt lat="43.47625" lon="6.56528">
        <ele>34.5</ele>
        <time>2022-04-27T12:13:50Z</time>
      </trkpt>
      <trkpt lat="43.47635" lon="6.56533">
        <ele>34.5</ele>
        <time>2022-04-27T12:13:59Z</time>
      </trkpt>
      <trkpt lat="43.47644" lon="6.56536">
        <ele>34.5</ele>
        <time>2022-04-27T12:14:08Z</time>
      </trkpt>
      <trkpt lat="43.47654" lon="6.56538">
        <ele>34</ele>
        <time>2022-04-27T12:14:17Z</time>
      </trkpt>
      <trkpt lat="43.47664" lon="6.56539">
        <ele>32.8</ele>
        <time>2022-04-27T12:14:29Z</time>
      </trkpt>
      <trkpt lat="43.47674" lon="6.56539">
        <ele>32.1</ele>
        <time>2022-04-27T12:14:37Z</time>
      </trkpt>
      <trkpt lat="43.47682" lon="6.56533">
        <ele>32.1</ele>
        <time>2022-04-27T12:14:43Z</time>
      </trkpt>
      <trkpt lat="43.47692" lon="6.56531">
        <ele>31.8</ele>
        <time>2022-04-27T12:14:51Z</time>
      </trkpt>
      <trkpt lat="43.477" lon="6.56526">
        <ele>31.5</ele>
        <time>2022-04-27T12:14:58Z</time>
      </trkpt>
      <trkpt lat="43.47708" lon="6.56519">
        <ele>31.2</ele>
        <time>2022-04-27T12:15:07Z</time>
      </trkpt>
      <trkpt lat="43.47718" lon="6.5652">
        <ele>31.5</ele>
        <time>2022-04-27T12:15:16Z</time>
      </trkpt>
      <trkpt lat="43.47727" lon="6.56519">
        <ele>31.8</ele>
        <time>2022-04-27T12:15:23Z</time>
      </trkpt>
      <trkpt lat="43.47736" lon="6.56521">
        <ele>32</ele>
        <time>2022-04-27T12:15:31Z</time>
      </trkpt>
      <trkpt lat="43.47741" lon="6.56531">
        <ele>32.1</ele>
        <time>2022-04-27T12:15:41Z</time>
      </trkpt>
      <trkpt lat="43.47742" lon="6.56545">
        <ele>32</ele>
        <time>2022-04-27T12:15:52Z</time>
      </trkpt>
      <trkpt lat="43.47745" lon="6.56557">
        <ele>31.8</ele>
        <time>2022-04-27T12:16:02Z</time>
      </trkpt>
      <trkpt lat="43.47744" lon="6.5657">
        <ele>31.6</ele>
        <time>2022-04-27T12:16:10Z</time>
      </trkpt>
      <trkpt lat="43.47744" lon="6.56583">
        <ele>30.7</ele>
        <time>2022-04-27T12:16:18Z</time>
      </trkpt>
      <trkpt lat="43.47742" lon="6.56597">
        <ele>30.1</ele>
        <time>2022-04-27T12:16:26Z</time>
      </trkpt>
      <trkpt lat="43.4774" lon="6.5661">
        <ele>29.6</ele>
        <time>2022-04-27T12:16:34Z</time>
      </trkpt>
      <trkpt lat="43.47746" lon="6.5662">
        <ele>30</ele>
        <time>2022-04-27T12:16:44Z</time>
      </trkpt>
      <trkpt lat="43.47744" lon="6.56632">
        <ele>30.9</ele>
        <time>2022-04-27T12:16:54Z</time>
      </trkpt>
      <trkpt lat="43.47747" lon="6.5662">
        <ele>30.8</ele>
        <time>2022-04-27T12:17:17Z</time>
      </trkpt>
      <trkpt lat="43.47739" lon="6.56627">
        <ele>29.6</ele>
        <time>2022-04-27T12:20:27Z</time>
      </trkpt>
      <trkpt lat="43.47737" lon="6.5664">
        <ele>29.6</ele>
        <time>2022-04-27T12:20:47Z</time>
      </trkpt>
      <trkpt lat="43.47734" lon="6.56652">
        <ele>28.9</ele>
        <time>2022-04-27T12:20:58Z</time>
      </trkpt>
      <trkpt lat="43.47738" lon="6.56664">
        <ele>28.7</ele>
        <time>2022-04-27T12:21:09Z</time>
      </trkpt>
      <trkpt lat="43.47748" lon="6.56667">
        <ele>29.1</ele>
        <time>2022-04-27T12:21:19Z</time>
      </trkpt>
      <trkpt lat="43.47757" lon="6.56666">
        <ele>29.4</ele>
        <time>2022-04-27T12:21:27Z</time>
      </trkpt>
      <trkpt lat="43.47767" lon="6.56666">
        <ele>29.7</ele>
        <time>2022-04-27T12:21:39Z</time>
      </trkpt>
      <trkpt lat="43.47776" lon="6.56663">
        <ele>29.8</ele>
        <time>2022-04-27T12:21:50Z</time>
      </trkpt>
      <trkpt lat="43.47785" lon="6.56664">
        <ele>30</ele>
        <time>2022-04-27T12:21:58Z</time>
      </trkpt>
      <trkpt lat="43.47795" lon="6.56665">
        <ele>30.1</ele>
        <time>2022-04-27T12:22:07Z</time>
      </trkpt>
      <trkpt lat="43.47805" lon="6.56663">
        <ele>30.1</ele>
        <time>2022-04-27T12:22:17Z</time>
      </trkpt>
      <trkpt lat="43.47814" lon="6.56662">
        <ele>30.2</ele>
        <time>2022-04-27T12:22:26Z</time>
      </trkpt>
      <trkpt lat="43.47824" lon="6.56663">
        <ele>30.1</ele>
        <time>2022-04-27T12:22:34Z</time>
      </trkpt>
      <trkpt lat="43.47834" lon="6.56663">
        <ele>29.5</ele>
        <time>2022-04-27T12:22:42Z</time>
      </trkpt>
      <trkpt lat="43.47844" lon="6.56664">
        <ele>29.2</ele>
        <time>2022-04-27T12:22:52Z</time>
      </trkpt>
      <trkpt lat="43.47853" lon="6.56664">
        <ele>29.3</ele>
        <time>2022-04-27T12:22:58Z</time>
      </trkpt>
      <trkpt lat="43.47862" lon="6.56666">
        <ele>29.4</ele>
        <time>2022-04-27T12:23:05Z</time>
      </trkpt>
      <trkpt lat="43.47869" lon="6.56675">
        <ele>29.2</ele>
        <time>2022-04-27T12:23:12Z</time>
      </trkpt>
      <trkpt lat="43.47871" lon="6.56687">
        <ele>28.4</ele>
        <time>2022-04-27T12:23:19Z</time>
      </trkpt>
      <trkpt lat="43.47874" lon="6.56699">
        <ele>27.6</ele>
        <time>2022-04-27T12:23:27Z</time>
      </trkpt>
      <trkpt lat="43.47876" lon="6.56711">
        <ele>27.4</ele>
        <time>2022-04-27T12:23:35Z</time>
      </trkpt>
      <trkpt lat="43.47881" lon="6.56722">
        <ele>27.3</ele>
        <time>2022-04-27T12:24:06Z</time>
      </trkpt>
      <trkpt lat="43.47885" lon="6.56734">
        <ele>27.3</ele>
        <time>2022-04-27T12:24:14Z</time>
      </trkpt>
      <trkpt lat="43.47886" lon="6.56747">
        <ele>27.1</ele>
        <time>2022-04-27T12:24:22Z</time>
      </trkpt>
      <trkpt lat="43.47889" lon="6.5676">
        <ele>27.3</ele>
        <time>2022-04-27T12:24:30Z</time>
      </trkpt>
      <trkpt lat="43.47895" lon="6.56769">
        <ele>27.2</ele>
        <time>2022-04-27T12:24:38Z</time>
      </trkpt>
      <trkpt lat="43.47902" lon="6.56778">
        <ele>26.7</ele>
        <time>2022-04-27T12:24:46Z</time>
      </trkpt>
      <trkpt lat="43.47906" lon="6.5679">
        <ele>27</ele>
        <time>2022-04-27T12:25:12Z</time>
      </trkpt>
      <trkpt lat="43.47914" lon="6.56796">
        <ele>27.1</ele>
        <time>2022-04-27T12:25:37Z</time>
      </trkpt>
      <trkpt lat="43.47921" lon="6.56805">
        <ele>27.2</ele>
        <time>2022-04-27T12:27:48Z</time>
      </trkpt>
      <trkpt lat="43.47929" lon="6.56811">
        <ele>27</ele>
        <time>2022-04-27T12:28:04Z</time>
      </trkpt>
      <trkpt lat="43.47936" lon="6.56819">
        <ele>26.1</ele>
        <time>2022-04-27T12:28:14Z</time>
      </trkpt>
      <trkpt lat="43.47943" lon="6.56827">
        <ele>25.7</ele>
        <time>2022-04-27T12:28:23Z</time>
      </trkpt>
      <trkpt lat="43.47947" lon="6.56838">
        <ele>25.1</ele>
        <time>2022-04-27T12:28:50Z</time>
      </trkpt>
      <trkpt lat="43.47953" lon="6.56827">
        <ele>25.3</ele>
        <time>2022-04-27T12:30:29Z</time>
      </trkpt>
      <trkpt lat="43.4796" lon="6.5682">
        <ele>25.5</ele>
        <time>2022-04-27T12:30:54Z</time>
      </trkpt>
      <trkpt lat="43.47967" lon="6.56809">
        <ele>25.5</ele>
        <time>2022-04-27T12:31:05Z</time>
      </trkpt>
      <trkpt lat="43.47972" lon="6.56798">
        <ele>26.2</ele>
        <time>2022-04-27T12:31:14Z</time>
      </trkpt>
      <trkpt lat="43.47978" lon="6.56787">
        <ele>26.6</ele>
        <time>2022-04-27T12:31:24Z</time>
      </trkpt>
      <trkpt lat="43.47985" lon="6.56779">
        <ele>27.3</ele>
        <time>2022-04-27T12:31:32Z</time>
      </trkpt>
      <trkpt lat="43.47991" lon="6.56769">
        <ele>28</ele>
        <time>2022-04-27T12:31:43Z</time>
      </trkpt>
      <trkpt lat="43.48" lon="6.56772">
        <ele>29.1</ele>
        <time>2022-04-27T12:31:53Z</time>
      </trkpt>
      <trkpt lat="43.48009" lon="6.56768">
        <ele>29.2</ele>
        <time>2022-04-27T12:32:00Z</time>
      </trkpt>
      <trkpt lat="43.48018" lon="6.56766">
        <ele>29.2</ele>
        <time>2022-04-27T12:32:09Z</time>
      </trkpt>
      <trkpt lat="43.48027" lon="6.56762">
        <ele>29.3</ele>
        <time>2022-04-27T12:32:23Z</time>
      </trkpt>
      <trkpt lat="43.48037" lon="6.56762">
        <ele>29.3</ele>
        <time>2022-04-27T12:32:32Z</time>
      </trkpt>
      <trkpt lat="43.48046" lon="6.56765">
        <ele>29.5</ele>
        <time>2022-04-27T12:32:44Z</time>
      </trkpt>
      <trkpt lat="43.48055" lon="6.5677">
        <ele>29.3</ele>
        <time>2022-04-27T12:32:54Z</time>
      </trkpt>
      <trkpt lat="43.48061" lon="6.5678">
        <ele>28.8</ele>
        <time>2022-04-27T12:33:08Z</time>
      </trkpt>
      <trkpt lat="43.4806" lon="6.56792">
        <ele>29.2</ele>
        <time>2022-04-27T12:33:41Z</time>
      </trkpt>
      <trkpt lat="43.48058" lon="6.56805">
        <ele>29.2</ele>
        <time>2022-04-27T12:33:51Z</time>
      </trkpt>
      <trkpt lat="43.48057" lon="6.56818">
        <ele>29.2</ele>
        <time>2022-04-27T12:34:00Z</time>
      </trkpt>
      <trkpt lat="43.48055" lon="6.56831">
        <ele>28.8</ele>
        <time>2022-04-27T12:34:09Z</time>
      </trkpt>
      <trkpt lat="43.48052" lon="6.56844">
        <ele>28.8</ele>
        <time>2022-04-27T12:34:25Z</time>
      </trkpt>
      <trkpt lat="43.48049" lon="6.56856">
        <ele>28.6</ele>
        <time>2022-04-27T12:34:35Z</time>
      </trkpt>
      <trkpt lat="43.48044" lon="6.56867">
        <ele>28.7</ele>
        <time>2022-04-27T12:34:45Z</time>
      </trkpt>
      <trkpt lat="43.48037" lon="6.56876">
        <ele>28.5</ele>
        <time>2022-04-27T12:34:53Z</time>
      </trkpt>
      <trkpt lat="43.4803" lon="6.56885">
        <ele>28</ele>
        <time>2022-04-27T12:35:01Z</time>
      </trkpt>
      <trkpt lat="43.48028" lon="6.56897">
        <ele>28</ele>
        <time>2022-04-27T12:35:09Z</time>
      </trkpt>
      <trkpt lat="43.48033" lon="6.56908">
        <ele>27.7</ele>
        <time>2022-04-27T12:35:17Z</time>
      </trkpt>
      <trkpt lat="43.48042" lon="6.56912">
        <ele>27.7</ele>
        <time>2022-04-27T12:35:25Z</time>
      </trkpt>
      <trkpt lat="43.48051" lon="6.56918">
        <ele>27.6</ele>
        <time>2022-04-27T12:35:34Z</time>
      </trkpt>
      <trkpt lat="43.48059" lon="6.56925">
        <ele>27.2</ele>
        <time>2022-04-27T12:35:42Z</time>
      </trkpt>
      <trkpt lat="43.48061" lon="6.56938">
        <ele>27.4</ele>
        <time>2022-04-27T12:35:51Z</time>
      </trkpt>
      <trkpt lat="43.48059" lon="6.56951">
        <ele>27.4</ele>
        <time>2022-04-27T12:36:00Z</time>
      </trkpt>
      <trkpt lat="43.48057" lon="6.56965">
        <ele>27.1</ele>
        <time>2022-04-27T12:36:08Z</time>
      </trkpt>
      <trkpt lat="43.48055" lon="6.56978">
        <ele>26.3</ele>
        <time>2022-04-27T12:36:17Z</time>
      </trkpt>
      <trkpt lat="43.48053" lon="6.5699">
        <ele>25.7</ele>
        <time>2022-04-27T12:36:25Z</time>
      </trkpt>
      <trkpt lat="43.4805" lon="6.57003">
        <ele>25.1</ele>
        <time>2022-04-27T12:36:33Z</time>
      </trkpt>
      <trkpt lat="43.48048" lon="6.57015">
        <ele>24.4</ele>
        <time>2022-04-27T12:36:41Z</time>
      </trkpt>
      <trkpt lat="43.48046" lon="6.57028">
        <ele>24</ele>
        <time>2022-04-27T12:36:49Z</time>
      </trkpt>
      <trkpt lat="43.48042" lon="6.5704">
        <ele>23.7</ele>
        <time>2022-04-27T12:36:56Z</time>
      </trkpt>
      <trkpt lat="43.48042" lon="6.57052">
        <ele>23.7</ele>
        <time>2022-04-27T12:37:04Z</time>
      </trkpt>
      <trkpt lat="43.48039" lon="6.57066">
        <ele>23.5</ele>
        <time>2022-04-27T12:37:14Z</time>
      </trkpt>
      <trkpt lat="43.48036" lon="6.57078">
        <ele>23.7</ele>
        <time>2022-04-27T12:37:22Z</time>
      </trkpt>
      <trkpt lat="43.48032" lon="6.57091">
        <ele>23.2</ele>
        <time>2022-04-27T12:37:30Z</time>
      </trkpt>
      <trkpt lat="43.48028" lon="6.57102">
        <ele>22.9</ele>
        <time>2022-04-27T12:37:38Z</time>
      </trkpt>
      <trkpt lat="43.48024" lon="6.57114">
        <ele>22.7</ele>
        <time>2022-04-27T12:37:46Z</time>
      </trkpt>
      <trkpt lat="43.48018" lon="6.57124">
        <ele>22.7</ele>
        <time>2022-04-27T12:37:54Z</time>
      </trkpt>
      <trkpt lat="43.4801" lon="6.57131">
        <ele>22.3</ele>
        <time>2022-04-27T12:38:02Z</time>
      </trkpt>
      <trkpt lat="43.48" lon="6.57133">
        <ele>21.9</ele>
        <time>2022-04-27T12:38:11Z</time>
      </trkpt>
      <trkpt lat="43.4799" lon="6.57136">
        <ele>21.7</ele>
        <time>2022-04-27T12:38:20Z</time>
      </trkpt>
      <trkpt lat="43.47983" lon="6.57145">
        <ele>22</ele>
        <time>2022-04-27T12:39:24Z</time>
      </trkpt>
      <trkpt lat="43.47976" lon="6.57154">
        <ele>22.2</ele>
        <time>2022-04-27T12:39:34Z</time>
      </trkpt>
      <trkpt lat="43.47971" lon="6.57165">
        <ele>21.9</ele>
        <time>2022-04-27T12:39:43Z</time>
      </trkpt>
      <trkpt lat="43.47968" lon="6.57178">
        <ele>22.3</ele>
        <time>2022-04-27T12:39:54Z</time>
      </trkpt>
      <trkpt lat="43.4796" lon="6.57185">
        <ele>22.8</ele>
        <time>2022-04-27T12:40:08Z</time>
      </trkpt>
      <trkpt lat="43.47966" lon="6.57196">
        <ele>24.8</ele>
        <time>2022-04-27T12:40:29Z</time>
      </trkpt>
      <trkpt lat="43.47971" lon="6.57207">
        <ele>24.4</ele>
        <time>2022-04-27T12:40:43Z</time>
      </trkpt>
      <trkpt lat="43.47977" lon="6.57215">
        <ele>24.7</ele>
        <time>2022-04-27T12:40:57Z</time>
      </trkpt>
      <trkpt lat="43.47984" lon="6.57223">
        <ele>25.4</ele>
        <time>2022-04-27T12:41:04Z</time>
      </trkpt>
      <trkpt lat="43.47992" lon="6.57231">
        <ele>25.6</ele>
        <time>2022-04-27T12:41:08Z</time>
      </trkpt>
      <trkpt lat="43.48001" lon="6.57236">
        <ele>25.7</ele>
        <time>2022-04-27T12:41:14Z</time>
      </trkpt>
      <trkpt lat="43.4801" lon="6.5724">
        <ele>26.1</ele>
        <time>2022-04-27T12:41:19Z</time>
      </trkpt>
      <trkpt lat="43.48019" lon="6.57242">
        <ele>26.6</ele>
        <time>2022-04-27T12:41:36Z</time>
      </trkpt>
      <trkpt lat="43.48028" lon="6.57247">
        <ele>25.9</ele>
        <time>2022-04-27T12:41:49Z</time>
      </trkpt>
      <trkpt lat="43.48037" lon="6.57248">
        <ele>26.1</ele>
        <time>2022-04-27T12:41:57Z</time>
      </trkpt>
      <trkpt lat="43.48047" lon="6.57247">
        <ele>26.4</ele>
        <time>2022-04-27T12:42:05Z</time>
      </trkpt>
      <trkpt lat="43.48057" lon="6.57248">
        <ele>27.3</ele>
        <time>2022-04-27T12:42:15Z</time>
      </trkpt>
      <trkpt lat="43.48067" lon="6.57246">
        <ele>27.7</ele>
        <time>2022-04-27T12:42:22Z</time>
      </trkpt>
      <trkpt lat="43.48075" lon="6.5724">
        <ele>27.7</ele>
        <time>2022-04-27T12:42:30Z</time>
      </trkpt>
      <trkpt lat="43.48084" lon="6.57235">
        <ele>27.2</ele>
        <time>2022-04-27T12:42:38Z</time>
      </trkpt>
      <trkpt lat="43.48092" lon="6.57229">
        <ele>26.7</ele>
        <time>2022-04-27T12:42:45Z</time>
      </trkpt>
      <trkpt lat="43.48102" lon="6.57226">
        <ele>26.7</ele>
        <time>2022-04-27T12:42:55Z</time>
      </trkpt>
      <trkpt lat="43.48111" lon="6.57228">
        <ele>26.3</ele>
        <time>2022-04-27T12:43:03Z</time>
      </trkpt>
      <trkpt lat="43.4812" lon="6.57226">
        <ele>25.1</ele>
        <time>2022-04-27T12:43:16Z</time>
      </trkpt>
      <trkpt lat="43.4813" lon="6.57225">
        <ele>23.6</ele>
        <time>2022-04-27T12:43:27Z</time>
      </trkpt>
      <trkpt lat="43.48139" lon="6.57226">
        <ele>22.8</ele>
        <time>2022-04-27T12:43:36Z</time>
      </trkpt>
      <trkpt lat="43.48147" lon="6.5722">
        <ele>22.3</ele>
        <time>2022-04-27T12:44:04Z</time>
      </trkpt>
      <trkpt lat="43.48156" lon="6.5722">
        <ele>22.8</ele>
        <time>2022-04-27T12:45:16Z</time>
      </trkpt>
      <trkpt lat="43.48165" lon="6.57225">
        <ele>23.1</ele>
        <time>2022-04-27T12:45:41Z</time>
      </trkpt>
      <trkpt lat="43.48174" lon="6.57228">
        <ele>26</ele>
        <time>2022-04-27T12:45:54Z</time>
      </trkpt>
      <trkpt lat="43.48184" lon="6.57228">
        <ele>28.6</ele>
        <time>2022-04-27T12:46:07Z</time>
      </trkpt>
      <trkpt lat="43.48193" lon="6.57231">
        <ele>30.5</ele>
        <time>2022-04-27T12:46:20Z</time>
      </trkpt>
      <trkpt lat="43.48202" lon="6.57234">
        <ele>32.1</ele>
        <time>2022-04-27T12:46:29Z</time>
      </trkpt>
      <trkpt lat="43.4821" lon="6.57239">
        <ele>32.9</ele>
        <time>2022-04-27T12:46:39Z</time>
      </trkpt>
      <trkpt lat="43.48217" lon="6.57249">
        <ele>34.4</ele>
        <time>2022-04-27T12:46:49Z</time>
      </trkpt>
      <trkpt lat="43.48226" lon="6.57253">
        <ele>35.1</ele>
        <time>2022-04-27T12:47:00Z</time>
      </trkpt>
      <trkpt lat="43.48235" lon="6.57249">
        <ele>35.3</ele>
        <time>2022-04-27T12:47:10Z</time>
      </trkpt>
      <trkpt lat="43.48243" lon="6.57242">
        <ele>34.6</ele>
        <time>2022-04-27T12:47:19Z</time>
      </trkpt>
      <trkpt lat="43.48251" lon="6.57236">
        <ele>34.7</ele>
        <time>2022-04-27T12:49:13Z</time>
      </trkpt>
      <trkpt lat="43.48258" lon="6.57229">
        <ele>35</ele>
        <time>2022-04-27T12:49:37Z</time>
      </trkpt>
      <trkpt lat="43.48267" lon="6.57224">
        <ele>36.1</ele>
        <time>2022-04-27T12:50:00Z</time>
      </trkpt>
      <trkpt lat="43.48277" lon="6.57221">
        <ele>36.2</ele>
        <time>2022-04-27T12:50:13Z</time>
      </trkpt>
      <trkpt lat="43.48285" lon="6.57216">
        <ele>36.7</ele>
        <time>2022-04-27T12:50:23Z</time>
      </trkpt>
      <trkpt lat="43.48295" lon="6.57214">
        <ele>35.9</ele>
        <time>2022-04-27T12:50:35Z</time>
      </trkpt>
      <trkpt lat="43.48304" lon="6.57213">
        <ele>35.7</ele>
        <time>2022-04-27T12:50:44Z</time>
      </trkpt>
      <trkpt lat="43.48314" lon="6.57211">
        <ele>35.4</ele>
        <time>2022-04-27T12:50:55Z</time>
      </trkpt>
      <trkpt lat="43.48323" lon="6.57206">
        <ele>34.2</ele>
        <time>2022-04-27T12:51:11Z</time>
      </trkpt>
      <trkpt lat="43.48332" lon="6.57205">
        <ele>33.6</ele>
        <time>2022-04-27T12:51:23Z</time>
      </trkpt>
      <trkpt lat="43.4834" lon="6.572">
        <ele>33.8</ele>
        <time>2022-04-27T12:51:32Z</time>
      </trkpt>
      <trkpt lat="43.48348" lon="6.57192">
        <ele>34.3</ele>
        <time>2022-04-27T12:51:41Z</time>
      </trkpt>
      <trkpt lat="43.48355" lon="6.57183">
        <ele>34.1</ele>
        <time>2022-04-27T12:51:49Z</time>
      </trkpt>
      <trkpt lat="43.4836" lon="6.57172">
        <ele>34.1</ele>
        <time>2022-04-27T12:51:57Z</time>
      </trkpt>
      <trkpt lat="43.48367" lon="6.57164">
        <ele>33.8</ele>
        <time>2022-04-27T12:52:09Z</time>
      </trkpt>
      <trkpt lat="43.48377" lon="6.57163">
        <ele>33.5</ele>
        <time>2022-04-27T12:52:20Z</time>
      </trkpt>
      <trkpt lat="43.48386" lon="6.5716">
        <ele>33.1</ele>
        <time>2022-04-27T12:52:28Z</time>
      </trkpt>
      <trkpt lat="43.48395" lon="6.57159">
        <ele>33.1</ele>
        <time>2022-04-27T12:52:36Z</time>
      </trkpt>
      <trkpt lat="43.48405" lon="6.57157">
        <ele>33.5</ele>
        <time>2022-04-27T12:53:27Z</time>
      </trkpt>
      <trkpt lat="43.48401" lon="6.57169">
        <ele>34</ele>
        <time>2022-04-27T12:53:48Z</time>
      </trkpt>
      <trkpt lat="43.48402" lon="6.57182">
        <ele>35</ele>
        <time>2022-04-27T12:54:04Z</time>
      </trkpt>
      <trkpt lat="43.48397" lon="6.57194">
        <ele>35.8</ele>
        <time>2022-04-27T12:54:13Z</time>
      </trkpt>
      <trkpt lat="43.48389" lon="6.572">
        <ele>36.3</ele>
        <time>2022-04-27T12:54:22Z</time>
      </trkpt>
      <trkpt lat="43.48381" lon="6.57209">
        <ele>37</ele>
        <time>2022-04-27T12:54:31Z</time>
      </trkpt>
      <trkpt lat="43.48373" lon="6.57216">
        <ele>38</ele>
        <time>2022-04-27T12:54:41Z</time>
      </trkpt>
      <trkpt lat="43.48367" lon="6.57225">
        <ele>39.5</ele>
        <time>2022-04-27T12:54:51Z</time>
      </trkpt>
      <trkpt lat="43.48364" lon="6.57238">
        <ele>40.3</ele>
        <time>2022-04-27T12:55:00Z</time>
      </trkpt>
      <trkpt lat="43.48361" lon="6.5725">
        <ele>41.5</ele>
        <time>2022-04-27T12:55:10Z</time>
      </trkpt>
      <trkpt lat="43.48356" lon="6.57262">
        <ele>42.8</ele>
        <time>2022-04-27T12:55:20Z</time>
      </trkpt>
      <trkpt lat="43.48354" lon="6.57275">
        <ele>43.7</ele>
        <time>2022-04-27T12:55:30Z</time>
      </trkpt>
      <trkpt lat="43.48353" lon="6.57288">
        <ele>44.4</ele>
        <time>2022-04-27T12:55:39Z</time>
      </trkpt>
      <trkpt lat="43.48357" lon="6.573">
        <ele>45.4</ele>
        <time>2022-04-27T12:55:48Z</time>
      </trkpt>
      <trkpt lat="43.48364" lon="6.57309">
        <ele>45.5</ele>
        <time>2022-04-27T12:55:56Z</time>
      </trkpt>
      <trkpt lat="43.48369" lon="6.5732">
        <ele>46</ele>
        <time>2022-04-27T12:56:04Z</time>
      </trkpt>
      <trkpt lat="43.48373" lon="6.57331">
        <ele>46.4</ele>
        <time>2022-04-27T12:56:12Z</time>
      </trkpt>
      <trkpt lat="43.48374" lon="6.57345">
        <ele>46.8</ele>
        <time>2022-04-27T12:56:21Z</time>
      </trkpt>
      <trkpt lat="43.48374" lon="6.57357">
        <ele>47.5</ele>
        <time>2022-04-27T12:56:31Z</time>
      </trkpt>
      <trkpt lat="43.48375" lon="6.5737">
        <ele>47.9</ele>
        <time>2022-04-27T12:56:39Z</time>
      </trkpt>
      <trkpt lat="43.48377" lon="6.57382">
        <ele>48.6</ele>
        <time>2022-04-27T12:56:47Z</time>
      </trkpt>
      <trkpt lat="43.4838" lon="6.57395">
        <ele>48.9</ele>
        <time>2022-04-27T12:56:55Z</time>
      </trkpt>
      <trkpt lat="43.48385" lon="6.57407">
        <ele>49.8</ele>
        <time>2022-04-27T12:57:04Z</time>
      </trkpt>
      <trkpt lat="43.48389" lon="6.57419">
        <ele>50</ele>
        <time>2022-04-27T12:57:12Z</time>
      </trkpt>
      <trkpt lat="43.48397" lon="6.57427">
        <ele>49.7</ele>
        <time>2022-04-27T12:57:20Z</time>
      </trkpt>
      <trkpt lat="43.48403" lon="6.57437">
        <ele>50</ele>
        <time>2022-04-27T12:57:28Z</time>
      </trkpt>
      <trkpt lat="43.48405" lon="6.5745">
        <ele>49.7</ele>
        <time>2022-04-27T12:57:38Z</time>
      </trkpt>
      <trkpt lat="43.48408" lon="6.57462">
        <ele>50.2</ele>
        <time>2022-04-27T13:00:28Z</time>
      </trkpt>
      <trkpt lat="43.48408" lon="6.57475">
        <ele>50.5</ele>
        <time>2022-04-27T13:00:55Z</time>
      </trkpt>
      <trkpt lat="43.48405" lon="6.57487">
        <ele>51</ele>
        <time>2022-04-27T13:01:04Z</time>
      </trkpt>
      <trkpt lat="43.48403" lon="6.575">
        <ele>51.1</ele>
        <time>2022-04-27T13:01:13Z</time>
      </trkpt>
      <trkpt lat="43.48404" lon="6.57513">
        <ele>51.8</ele>
        <time>2022-04-27T13:01:22Z</time>
      </trkpt>
      <trkpt lat="43.48404" lon="6.57526">
        <ele>53.3</ele>
        <time>2022-04-27T13:01:32Z</time>
      </trkpt>
      <trkpt lat="43.48408" lon="6.57539">
        <ele>54.5</ele>
        <time>2022-04-27T13:01:42Z</time>
      </trkpt>
      <trkpt lat="43.48413" lon="6.57549">
        <ele>55.4</ele>
        <time>2022-04-27T13:01:52Z</time>
      </trkpt>
      <trkpt lat="43.48416" lon="6.57561">
        <ele>56.5</ele>
        <time>2022-04-27T13:02:02Z</time>
      </trkpt>
      <trkpt lat="43.48415" lon="6.57575">
        <ele>57.6</ele>
        <time>2022-04-27T13:02:12Z</time>
      </trkpt>
      <trkpt lat="43.48411" lon="6.57586">
        <ele>59.2</ele>
        <time>2022-04-27T13:02:24Z</time>
      </trkpt>
      <trkpt lat="43.4841" lon="6.57598">
        <ele>60.1</ele>
        <time>2022-04-27T13:02:36Z</time>
      </trkpt>
      <trkpt lat="43.48416" lon="6.57609">
        <ele>61.2</ele>
        <time>2022-04-27T13:02:46Z</time>
      </trkpt>
      <trkpt lat="43.4842" lon="6.57621">
        <ele>61.7</ele>
        <time>2022-04-27T13:02:55Z</time>
      </trkpt>
      <trkpt lat="43.48423" lon="6.57634">
        <ele>62.1</ele>
        <time>2022-04-27T13:03:05Z</time>
      </trkpt>
      <trkpt lat="43.48426" lon="6.57646">
        <ele>63</ele>
        <time>2022-04-27T13:03:15Z</time>
      </trkpt>
      <trkpt lat="43.48429" lon="6.57659">
        <ele>63.6</ele>
        <time>2022-04-27T13:03:27Z</time>
      </trkpt>
      <trkpt lat="43.48431" lon="6.57671">
        <ele>63.7</ele>
        <time>2022-04-27T13:03:36Z</time>
      </trkpt>
      <trkpt lat="43.48434" lon="6.57684">
        <ele>64.3</ele>
        <time>2022-04-27T13:03:45Z</time>
      </trkpt>
      <trkpt lat="43.48437" lon="6.57697">
        <ele>65</ele>
        <time>2022-04-27T13:03:55Z</time>
      </trkpt>
      <trkpt lat="43.48437" lon="6.5771">
        <ele>65.8</ele>
        <time>2022-04-27T13:04:05Z</time>
      </trkpt>
      <trkpt lat="43.4844" lon="6.57723">
        <ele>67.1</ele>
        <time>2022-04-27T13:04:15Z</time>
      </trkpt>
      <trkpt lat="43.48443" lon="6.57736">
        <ele>68</ele>
        <time>2022-04-27T13:04:25Z</time>
      </trkpt>
      <trkpt lat="43.48447" lon="6.57748">
        <ele>68.6</ele>
        <time>2022-04-27T13:04:34Z</time>
      </trkpt>
      <trkpt lat="43.4845" lon="6.57759">
        <ele>69.5</ele>
        <time>2022-04-27T13:04:44Z</time>
      </trkpt>
      <trkpt lat="43.48451" lon="6.57773">
        <ele>70.3</ele>
        <time>2022-04-27T13:04:54Z</time>
      </trkpt>
      <trkpt lat="43.48453" lon="6.57785">
        <ele>70.7</ele>
        <time>2022-04-27T13:05:03Z</time>
      </trkpt>
      <trkpt lat="43.48459" lon="6.57795">
        <ele>70.9</ele>
        <time>2022-04-27T13:05:12Z</time>
      </trkpt>
      <trkpt lat="43.48466" lon="6.57803">
        <ele>71.3</ele>
        <time>2022-04-27T13:05:21Z</time>
      </trkpt>
      <trkpt lat="43.48473" lon="6.57812">
        <ele>71.6</ele>
        <time>2022-04-27T13:05:30Z</time>
      </trkpt>
      <trkpt lat="43.48481" lon="6.5782">
        <ele>72</ele>
        <time>2022-04-27T13:05:39Z</time>
      </trkpt>
      <trkpt lat="43.48489" lon="6.57827">
        <ele>72.1</ele>
        <time>2022-04-27T13:05:47Z</time>
      </trkpt>
      <trkpt lat="43.48497" lon="6.57835">
        <ele>72</ele>
        <time>2022-04-27T13:05:55Z</time>
      </trkpt>
      <trkpt lat="43.48505" lon="6.57843">
        <ele>72</ele>
        <time>2022-04-27T13:06:04Z</time>
      </trkpt>
      <trkpt lat="43.48514" lon="6.57846">
        <ele>71.9</ele>
        <time>2022-04-27T13:08:37Z</time>
      </trkpt>
      <trkpt lat="43.48521" lon="6.57854">
        <ele>71.5</ele>
        <time>2022-04-27T13:08:46Z</time>
      </trkpt>
      <trkpt lat="43.48527" lon="6.57864">
        <ele>70.7</ele>
        <time>2022-04-27T13:08:56Z</time>
      </trkpt>
      <trkpt lat="43.48533" lon="6.57875">
        <ele>70</ele>
        <time>2022-04-27T13:09:05Z</time>
      </trkpt>
      <trkpt lat="43.48538" lon="6.57886">
        <ele>69.4</ele>
        <time>2022-04-27T13:09:13Z</time>
      </trkpt>
      <trkpt lat="43.48544" lon="6.57897">
        <ele>69.1</ele>
        <time>2022-04-27T13:09:21Z</time>
      </trkpt>
      <trkpt lat="43.48551" lon="6.57906">
        <ele>69.1</ele>
        <time>2022-04-27T13:09:29Z</time>
      </trkpt>
      <trkpt lat="43.48558" lon="6.57914">
        <ele>68.8</ele>
        <time>2022-04-27T13:09:37Z</time>
      </trkpt>
      <trkpt lat="43.48565" lon="6.57922">
        <ele>68.5</ele>
        <time>2022-04-27T13:09:45Z</time>
      </trkpt>
      <trkpt lat="43.48572" lon="6.57931">
        <ele>68</ele>
        <time>2022-04-27T13:09:53Z</time>
      </trkpt>
      <trkpt lat="43.48579" lon="6.57942">
        <ele>67.6</ele>
        <time>2022-04-27T13:10:02Z</time>
      </trkpt>
      <trkpt lat="43.48578" lon="6.57955">
        <ele>67.5</ele>
        <time>2022-04-27T13:10:10Z</time>
      </trkpt>
      <trkpt lat="43.48576" lon="6.57967">
        <ele>67.8</ele>
        <time>2022-04-27T13:10:31Z</time>
      </trkpt>
      <trkpt lat="43.48569" lon="6.57977">
        <ele>67.7</ele>
        <time>2022-04-27T13:10:41Z</time>
      </trkpt>
      <trkpt lat="43.48563" lon="6.57986">
        <ele>68.3</ele>
        <time>2022-04-27T13:10:51Z</time>
      </trkpt>
      <trkpt lat="43.48556" lon="6.57995">
        <ele>68.6</ele>
        <time>2022-04-27T13:11:02Z</time>
      </trkpt>
      <trkpt lat="43.48549" lon="6.58004">
        <ele>69.2</ele>
        <time>2022-04-27T13:11:11Z</time>
      </trkpt>
      <trkpt lat="43.48543" lon="6.58014">
        <ele>69.6</ele>
        <time>2022-04-27T13:11:20Z</time>
      </trkpt>
      <trkpt lat="43.48536" lon="6.58023">
        <ele>70.6</ele>
        <time>2022-04-27T13:11:30Z</time>
      </trkpt>
      <trkpt lat="43.4853" lon="6.58032">
        <ele>70.1</ele>
        <time>2022-04-27T13:11:39Z</time>
      </trkpt>
      <trkpt lat="43.48521" lon="6.58038">
        <ele>70</ele>
        <time>2022-04-27T13:11:49Z</time>
      </trkpt>
      <trkpt lat="43.48524" lon="6.5805">
        <ele>69.6</ele>
        <time>2022-04-27T13:12:40Z</time>
      </trkpt>
      <trkpt lat="43.48524" lon="6.58064">
        <ele>69.1</ele>
        <time>2022-04-27T13:12:50Z</time>
      </trkpt>
      <trkpt lat="43.48522" lon="6.58077">
        <ele>68.6</ele>
        <time>2022-04-27T13:12:59Z</time>
      </trkpt>
      <trkpt lat="43.48519" lon="6.58089">
        <ele>68.3</ele>
        <time>2022-04-27T13:13:07Z</time>
      </trkpt>
      <trkpt lat="43.48516" lon="6.58101">
        <ele>68.6</ele>
        <time>2022-04-27T13:13:14Z</time>
      </trkpt>
      <trkpt lat="43.48512" lon="6.58114">
        <ele>69.3</ele>
        <time>2022-04-27T13:13:22Z</time>
      </trkpt>
      <trkpt lat="43.48509" lon="6.58126">
        <ele>69.8</ele>
        <time>2022-04-27T13:13:30Z</time>
      </trkpt>
      <trkpt lat="43.48508" lon="6.58139">
        <ele>70.6</ele>
        <time>2022-04-27T13:14:04Z</time>
      </trkpt>
      <trkpt lat="43.48511" lon="6.58151">
        <ele>70.6</ele>
        <time>2022-04-27T13:14:13Z</time>
      </trkpt>
      <trkpt lat="43.48515" lon="6.58163">
        <ele>70.7</ele>
        <time>2022-04-27T13:14:22Z</time>
      </trkpt>
      <trkpt lat="43.48519" lon="6.58173">
        <ele>71</ele>
        <time>2022-04-27T13:14:33Z</time>
      </trkpt>
      <trkpt lat="43.48523" lon="6.58186">
        <ele>71.5</ele>
        <time>2022-04-27T13:14:43Z</time>
      </trkpt>
      <trkpt lat="43.48525" lon="6.58198">
        <ele>71.6</ele>
        <time>2022-04-27T13:14:52Z</time>
      </trkpt>
      <trkpt lat="43.48527" lon="6.58211">
        <ele>72.1</ele>
        <time>2022-04-27T13:15:03Z</time>
      </trkpt>
      <trkpt lat="43.48528" lon="6.58224">
        <ele>71.9</ele>
        <time>2022-04-27T13:15:13Z</time>
      </trkpt>
      <trkpt lat="43.48529" lon="6.58238">
        <ele>71.4</ele>
        <time>2022-04-27T13:15:32Z</time>
      </trkpt>
      <trkpt lat="43.48531" lon="6.58251">
        <ele>71.4</ele>
        <time>2022-04-27T13:15:41Z</time>
      </trkpt>
      <trkpt lat="43.4853" lon="6.58264">
        <ele>70.8</ele>
        <time>2022-04-27T13:15:49Z</time>
      </trkpt>
      <trkpt lat="43.4853" lon="6.58277">
        <ele>70.6</ele>
        <time>2022-04-27T13:15:58Z</time>
      </trkpt>
      <trkpt lat="43.48526" lon="6.5829">
        <ele>70.8</ele>
        <time>2022-04-27T13:16:06Z</time>
      </trkpt>
      <trkpt lat="43.48523" lon="6.58302">
        <ele>70.9</ele>
        <time>2022-04-27T13:16:14Z</time>
      </trkpt>
      <trkpt lat="43.4852" lon="6.58314">
        <ele>70.9</ele>
        <time>2022-04-27T13:16:22Z</time>
      </trkpt>
      <trkpt lat="43.4852" lon="6.58327">
        <ele>71.7</ele>
        <time>2022-04-27T13:16:31Z</time>
      </trkpt>
      <trkpt lat="43.48524" lon="6.5834">
        <ele>71.6</ele>
        <time>2022-04-27T13:16:41Z</time>
      </trkpt>
      <trkpt lat="43.4853" lon="6.5835">
        <ele>70.4</ele>
        <time>2022-04-27T13:16:50Z</time>
      </trkpt>
      <trkpt lat="43.48537" lon="6.5836">
        <ele>69.8</ele>
        <time>2022-04-27T13:16:59Z</time>
      </trkpt>
      <trkpt lat="43.48538" lon="6.58374">
        <ele>69.1</ele>
        <time>2022-04-27T13:17:08Z</time>
      </trkpt>
      <trkpt lat="43.48536" lon="6.58387">
        <ele>68.5</ele>
        <time>2022-04-27T13:17:16Z</time>
      </trkpt>
      <trkpt lat="43.48527" lon="6.58391">
        <ele>68.1</ele>
        <time>2022-04-27T13:17:26Z</time>
      </trkpt>
      <trkpt lat="43.48517" lon="6.58393">
        <ele>68.2</ele>
        <time>2022-04-27T13:17:37Z</time>
      </trkpt>
      <trkpt lat="43.48508" lon="6.5839">
        <ele>67.5</ele>
        <time>2022-04-27T13:17:46Z</time>
      </trkpt>
      <trkpt lat="43.48498" lon="6.5839">
        <ele>67.2</ele>
        <time>2022-04-27T13:17:56Z</time>
      </trkpt>
      <trkpt lat="43.4849" lon="6.58395">
        <ele>66.1</ele>
        <time>2022-04-27T13:18:05Z</time>
      </trkpt>
      <trkpt lat="43.48482" lon="6.58402">
        <ele>64.7</ele>
        <time>2022-04-27T13:18:16Z</time>
      </trkpt>
      <trkpt lat="43.48473" lon="6.58408">
        <ele>63.6</ele>
        <time>2022-04-27T13:18:26Z</time>
      </trkpt>
      <trkpt lat="43.4847" lon="6.5842">
        <ele>62.8</ele>
        <time>2022-04-27T13:18:36Z</time>
      </trkpt>
      <trkpt lat="43.48465" lon="6.5843">
        <ele>62.8</ele>
        <time>2022-04-27T13:19:06Z</time>
      </trkpt>
      <trkpt lat="43.48459" lon="6.58419">
        <ele>61.2</ele>
        <time>2022-04-27T13:20:22Z</time>
      </trkpt>
      <trkpt lat="43.48452" lon="6.58412">
        <ele>60.8</ele>
        <time>2022-04-27T13:20:31Z</time>
      </trkpt>
      <trkpt lat="43.48448" lon="6.58424">
        <ele>59.4</ele>
        <time>2022-04-27T13:20:47Z</time>
      </trkpt>
      <trkpt lat="43.48443" lon="6.58435">
        <ele>58.3</ele>
        <time>2022-04-27T13:20:56Z</time>
      </trkpt>
      <trkpt lat="43.48439" lon="6.58447">
        <ele>58.1</ele>
        <time>2022-04-27T13:21:05Z</time>
      </trkpt>
      <trkpt lat="43.48438" lon="6.58461">
        <ele>58.6</ele>
        <time>2022-04-27T13:21:14Z</time>
      </trkpt>
      <trkpt lat="43.48438" lon="6.58474">
        <ele>59</ele>
        <time>2022-04-27T13:21:23Z</time>
      </trkpt>
      <trkpt lat="43.48444" lon="6.58484">
        <ele>58.8</ele>
        <time>2022-04-27T13:21:32Z</time>
      </trkpt>
      <trkpt lat="43.4845" lon="6.58494">
        <ele>58.4</ele>
        <time>2022-04-27T13:21:41Z</time>
      </trkpt>
      <trkpt lat="43.48459" lon="6.58497">
        <ele>57.8</ele>
        <time>2022-04-27T13:21:50Z</time>
      </trkpt>
      <trkpt lat="43.48468" lon="6.58498">
        <ele>57.7</ele>
        <time>2022-04-27T13:22:00Z</time>
      </trkpt>
      <trkpt lat="43.48476" lon="6.58505">
        <ele>57.6</ele>
        <time>2022-04-27T13:22:10Z</time>
      </trkpt>
      <trkpt lat="43.48482" lon="6.58516">
        <ele>59.4</ele>
        <time>2022-04-27T13:22:22Z</time>
      </trkpt>
      <trkpt lat="43.48486" lon="6.58527">
        <ele>59.3</ele>
        <time>2022-04-27T13:22:32Z</time>
      </trkpt>
      <trkpt lat="43.48485" lon="6.5854">
        <ele>57.4</ele>
        <time>2022-04-27T13:22:42Z</time>
      </trkpt>
      <trkpt lat="43.48483" lon="6.58553">
        <ele>56.1</ele>
        <time>2022-04-27T13:22:51Z</time>
      </trkpt>
      <trkpt lat="43.4849" lon="6.58562">
        <ele>55.8</ele>
        <time>2022-04-27T13:23:00Z</time>
      </trkpt>
      <trkpt lat="43.48499" lon="6.58564">
        <ele>56</ele>
        <time>2022-04-27T13:23:09Z</time>
      </trkpt>
      <trkpt lat="43.48509" lon="6.58563">
        <ele>55.9</ele>
        <time>2022-04-27T13:23:18Z</time>
      </trkpt>
      <trkpt lat="43.48518" lon="6.58559">
        <ele>56.5</ele>
        <time>2022-04-27T13:23:28Z</time>
      </trkpt>
      <trkpt lat="43.48527" lon="6.58557">
        <ele>55.7</ele>
        <time>2022-04-27T13:23:39Z</time>
      </trkpt>
      <trkpt lat="43.48536" lon="6.58561">
        <ele>56.1</ele>
        <time>2022-04-27T13:23:50Z</time>
      </trkpt>
      <trkpt lat="43.48546" lon="6.58565">
        <ele>58.4</ele>
        <time>2022-04-27T13:24:01Z</time>
      </trkpt>
      <trkpt lat="43.48552" lon="6.58575">
        <ele>59.6</ele>
        <time>2022-04-27T13:24:13Z</time>
      </trkpt>
      <trkpt lat="43.48551" lon="6.58588">
        <ele>59.3</ele>
        <time>2022-04-27T13:24:22Z</time>
      </trkpt>
      <trkpt lat="43.48545" lon="6.58598">
        <ele>58.1</ele>
        <time>2022-04-27T13:24:34Z</time>
      </trkpt>
      <trkpt lat="43.48539" lon="6.58609">
        <ele>56.7</ele>
        <time>2022-04-27T13:24:44Z</time>
      </trkpt>
      <trkpt lat="43.48532" lon="6.58618">
        <ele>55.2</ele>
        <time>2022-04-27T13:25:14Z</time>
      </trkpt>
      <trkpt lat="43.48525" lon="6.58625">
        <ele>53.7</ele>
        <time>2022-04-27T13:25:23Z</time>
      </trkpt>
      <trkpt lat="43.48519" lon="6.58635">
        <ele>52.1</ele>
        <time>2022-04-27T13:25:32Z</time>
      </trkpt>
      <trkpt lat="43.48515" lon="6.58647">
        <ele>50.8</ele>
        <time>2022-04-27T13:25:42Z</time>
      </trkpt>
      <trkpt lat="43.48512" lon="6.58659">
        <ele>49.5</ele>
        <time>2022-04-27T13:25:52Z</time>
      </trkpt>
      <trkpt lat="43.48509" lon="6.58673">
        <ele>48.2</ele>
        <time>2022-04-27T13:26:02Z</time>
      </trkpt>
      <trkpt lat="43.48506" lon="6.58685">
        <ele>47.9</ele>
        <time>2022-04-27T13:26:11Z</time>
      </trkpt>
      <trkpt lat="43.48501" lon="6.58697">
        <ele>47.4</ele>
        <time>2022-04-27T13:26:20Z</time>
      </trkpt>
      <trkpt lat="43.48498" lon="6.58709">
        <ele>47.1</ele>
        <time>2022-04-27T13:30:20Z</time>
      </trkpt>
      <trkpt lat="43.48488" lon="6.58712">
        <ele>46.5</ele>
        <time>2022-04-27T13:30:28Z</time>
      </trkpt>
      <trkpt lat="43.48479" lon="6.58717">
        <ele>45.7</ele>
        <time>2022-04-27T13:30:38Z</time>
      </trkpt>
      <trkpt lat="43.4847" lon="6.5872">
        <ele>45.1</ele>
        <time>2022-04-27T13:30:49Z</time>
      </trkpt>
      <trkpt lat="43.48462" lon="6.58727">
        <ele>44.5</ele>
        <time>2022-04-27T13:30:59Z</time>
      </trkpt>
      <trkpt lat="43.48457" lon="6.58738">
        <ele>43.6</ele>
        <time>2022-04-27T13:31:08Z</time>
      </trkpt>
      <trkpt lat="43.48453" lon="6.58749">
        <ele>43</ele>
        <time>2022-04-27T13:31:17Z</time>
      </trkpt>
      <trkpt lat="43.48445" lon="6.58756">
        <ele>42.7</ele>
        <time>2022-04-27T13:31:28Z</time>
      </trkpt>
      <trkpt lat="43.48439" lon="6.58765">
        <ele>41.1</ele>
        <time>2022-04-27T13:31:39Z</time>
      </trkpt>
      <trkpt lat="43.48434" lon="6.58777">
        <ele>39.6</ele>
        <time>2022-04-27T13:31:48Z</time>
      </trkpt>
      <trkpt lat="43.48427" lon="6.58787">
        <ele>38.7</ele>
        <time>2022-04-27T13:31:57Z</time>
      </trkpt>
      <trkpt lat="43.4842" lon="6.58795">
        <ele>37.4</ele>
        <time>2022-04-27T13:32:06Z</time>
      </trkpt>
      <trkpt lat="43.48413" lon="6.58803">
        <ele>36.6</ele>
        <time>2022-04-27T13:32:14Z</time>
      </trkpt>
      <trkpt lat="43.48406" lon="6.58813">
        <ele>36.3</ele>
        <time>2022-04-27T13:32:22Z</time>
      </trkpt>
      <trkpt lat="43.484" lon="6.58824">
        <ele>36.2</ele>
        <time>2022-04-27T13:32:31Z</time>
      </trkpt>
      <trkpt lat="43.48397" lon="6.58836">
        <ele>35.2</ele>
        <time>2022-04-27T13:32:42Z</time>
      </trkpt>
      <trkpt lat="43.48394" lon="6.58848">
        <ele>34.5</ele>
        <time>2022-04-27T13:33:15Z</time>
      </trkpt>
      <trkpt lat="43.48388" lon="6.58859">
        <ele>34.2</ele>
        <time>2022-04-27T13:33:25Z</time>
      </trkpt>
      <trkpt lat="43.48385" lon="6.58872">
        <ele>33.7</ele>
        <time>2022-04-27T13:33:34Z</time>
      </trkpt>
      <trkpt lat="43.48382" lon="6.58885">
        <ele>33.5</ele>
        <time>2022-04-27T13:33:50Z</time>
      </trkpt>
      <trkpt lat="43.48381" lon="6.58897">
        <ele>34.1</ele>
        <time>2022-04-27T13:33:59Z</time>
      </trkpt>
      <trkpt lat="43.48379" lon="6.5891">
        <ele>35.2</ele>
        <time>2022-04-27T13:34:08Z</time>
      </trkpt>
      <trkpt lat="43.48382" lon="6.58922">
        <ele>36.2</ele>
        <time>2022-04-27T13:34:18Z</time>
      </trkpt>
      <trkpt lat="43.48392" lon="6.58925">
        <ele>37.3</ele>
        <time>2022-04-27T13:34:27Z</time>
      </trkpt>
      <trkpt lat="43.48401" lon="6.58926">
        <ele>38</ele>
        <time>2022-04-27T13:34:35Z</time>
      </trkpt>
      <trkpt lat="43.4841" lon="6.58925">
        <ele>38.9</ele>
        <time>2022-04-27T13:34:46Z</time>
      </trkpt>
      <trkpt lat="43.4842" lon="6.58926">
        <ele>39.4</ele>
        <time>2022-04-27T13:34:57Z</time>
      </trkpt>
      <trkpt lat="43.48429" lon="6.58926">
        <ele>40.4</ele>
        <time>2022-04-27T13:35:08Z</time>
      </trkpt>
      <trkpt lat="43.48437" lon="6.58918">
        <ele>41.4</ele>
        <time>2022-04-27T13:35:18Z</time>
      </trkpt>
      <trkpt lat="43.48446" lon="6.58913">
        <ele>42.1</ele>
        <time>2022-04-27T13:35:27Z</time>
      </trkpt>
      <trkpt lat="43.48455" lon="6.5891">
        <ele>42.9</ele>
        <time>2022-04-27T13:35:37Z</time>
      </trkpt>
      <trkpt lat="43.48464" lon="6.58909">
        <ele>44.6</ele>
        <time>2022-04-27T13:35:48Z</time>
      </trkpt>
      <trkpt lat="43.48474" lon="6.58907">
        <ele>45.5</ele>
        <time>2022-04-27T13:35:57Z</time>
      </trkpt>
      <trkpt lat="43.48483" lon="6.58905">
        <ele>45.6</ele>
        <time>2022-04-27T13:36:06Z</time>
      </trkpt>
      <trkpt lat="43.48493" lon="6.58901">
        <ele>46.1</ele>
        <time>2022-04-27T13:36:15Z</time>
      </trkpt>
      <trkpt lat="43.48502" lon="6.589">
        <ele>46.8</ele>
        <time>2022-04-27T13:36:25Z</time>
      </trkpt>
      <trkpt lat="43.48511" lon="6.58894">
        <ele>48</ele>
        <time>2022-04-27T13:36:37Z</time>
      </trkpt>
      <trkpt lat="43.48521" lon="6.58893">
        <ele>49</ele>
        <time>2022-04-27T13:36:47Z</time>
      </trkpt>
      <trkpt lat="43.48529" lon="6.58897">
        <ele>50</ele>
        <time>2022-04-27T13:36:57Z</time>
      </trkpt>
      <trkpt lat="43.48538" lon="6.58899">
        <ele>50.3</ele>
        <time>2022-04-27T13:37:08Z</time>
      </trkpt>
      <trkpt lat="43.48546" lon="6.58893">
        <ele>50.6</ele>
        <time>2022-04-27T13:38:10Z</time>
      </trkpt>
      <trkpt lat="43.48554" lon="6.58901">
        <ele>50.6</ele>
        <time>2022-04-27T13:39:34Z</time>
      </trkpt>
      <trkpt lat="43.48557" lon="6.58913">
        <ele>50.3</ele>
        <time>2022-04-27T13:39:43Z</time>
      </trkpt>
      <trkpt lat="43.48558" lon="6.58927">
        <ele>49.8</ele>
        <time>2022-04-27T13:39:52Z</time>
      </trkpt>
      <trkpt lat="43.48559" lon="6.5894">
        <ele>48.9</ele>
        <time>2022-04-27T13:40:02Z</time>
      </trkpt>
      <trkpt lat="43.48559" lon="6.58954">
        <ele>48.6</ele>
        <time>2022-04-27T13:40:11Z</time>
      </trkpt>
      <trkpt lat="43.48558" lon="6.58967">
        <ele>47.8</ele>
        <time>2022-04-27T13:40:28Z</time>
      </trkpt>
      <trkpt lat="43.48557" lon="6.5898">
        <ele>47.2</ele>
        <time>2022-04-27T13:40:37Z</time>
      </trkpt>
      <trkpt lat="43.48557" lon="6.58994">
        <ele>46.7</ele>
        <time>2022-04-27T13:40:45Z</time>
      </trkpt>
      <trkpt lat="43.48558" lon="6.59007">
        <ele>45.8</ele>
        <time>2022-04-27T13:40:54Z</time>
      </trkpt>
      <trkpt lat="43.48558" lon="6.5902">
        <ele>45.1</ele>
        <time>2022-04-27T13:41:02Z</time>
      </trkpt>
      <trkpt lat="43.48561" lon="6.59033">
        <ele>43.8</ele>
        <time>2022-04-27T13:42:06Z</time>
      </trkpt>
      <trkpt lat="43.48566" lon="6.59043">
        <ele>43</ele>
        <time>2022-04-27T13:42:17Z</time>
      </trkpt>
      <trkpt lat="43.48575" lon="6.5905">
        <ele>42.1</ele>
        <time>2022-04-27T13:42:26Z</time>
      </trkpt>
      <trkpt lat="43.48583" lon="6.59057">
        <ele>41.8</ele>
        <time>2022-04-27T13:42:35Z</time>
      </trkpt>
      <trkpt lat="43.48592" lon="6.59063">
        <ele>41.2</ele>
        <time>2022-04-27T13:42:44Z</time>
      </trkpt>
      <trkpt lat="43.48598" lon="6.59072">
        <ele>40.3</ele>
        <time>2022-04-27T13:42:53Z</time>
      </trkpt>
      <trkpt lat="43.486" lon="6.59085">
        <ele>39.9</ele>
        <time>2022-04-27T13:43:02Z</time>
      </trkpt>
      <trkpt lat="43.48598" lon="6.59098">
        <ele>39.9</ele>
        <time>2022-04-27T13:43:11Z</time>
      </trkpt>
      <trkpt lat="43.48596" lon="6.59111">
        <ele>39.1</ele>
        <time>2022-04-27T13:43:20Z</time>
      </trkpt>
      <trkpt lat="43.48593" lon="6.59124">
        <ele>37.5</ele>
        <time>2022-04-27T13:43:29Z</time>
      </trkpt>
      <trkpt lat="43.48591" lon="6.59137">
        <ele>36.4</ele>
        <time>2022-04-27T13:43:39Z</time>
      </trkpt>
      <trkpt lat="43.48586" lon="6.59149">
        <ele>35.2</ele>
        <time>2022-04-27T13:43:48Z</time>
      </trkpt>
      <trkpt lat="43.48581" lon="6.5916">
        <ele>33.8</ele>
        <time>2022-04-27T13:43:57Z</time>
      </trkpt>
      <trkpt lat="43.48576" lon="6.59172">
        <ele>32.8</ele>
        <time>2022-04-27T13:44:06Z</time>
      </trkpt>
      <trkpt lat="43.48573" lon="6.59184">
        <ele>32.4</ele>
        <time>2022-04-27T13:44:14Z</time>
      </trkpt>
      <trkpt lat="43.48573" lon="6.59196">
        <ele>32</ele>
        <time>2022-04-27T13:44:22Z</time>
      </trkpt>
      <trkpt lat="43.48575" lon="6.5921">
        <ele>31.9</ele>
        <time>2022-04-27T13:44:30Z</time>
      </trkpt>
      <trkpt lat="43.48574" lon="6.59224">
        <ele>31.5</ele>
        <time>2022-04-27T13:44:39Z</time>
      </trkpt>
      <trkpt lat="43.48572" lon="6.59236">
        <ele>30.7</ele>
        <time>2022-04-27T13:44:50Z</time>
      </trkpt>
      <trkpt lat="43.48576" lon="6.59248">
        <ele>30</ele>
        <time>2022-04-27T13:45:03Z</time>
      </trkpt>
      <trkpt lat="43.48582" lon="6.59258">
        <ele>28.5</ele>
        <time>2022-04-27T13:45:15Z</time>
      </trkpt>
      <trkpt lat="43.4859" lon="6.59263">
        <ele>27.1</ele>
        <time>2022-04-27T13:45:25Z</time>
      </trkpt>
      <trkpt lat="43.48597" lon="6.59271">
        <ele>25.3</ele>
        <time>2022-04-27T13:45:38Z</time>
      </trkpt>
      <trkpt lat="43.48604" lon="6.5928">
        <ele>23.9</ele>
        <time>2022-04-27T13:45:47Z</time>
      </trkpt>
      <trkpt lat="43.48609" lon="6.5929">
        <ele>23.2</ele>
        <time>2022-04-27T13:45:56Z</time>
      </trkpt>
      <trkpt lat="43.48618" lon="6.59295">
        <ele>23.2</ele>
        <time>2022-04-27T13:46:05Z</time>
      </trkpt>
      <trkpt lat="43.48627" lon="6.59296">
        <ele>23.7</ele>
        <time>2022-04-27T13:47:11Z</time>
      </trkpt>
      <trkpt lat="43.48633" lon="6.59286">
        <ele>23</ele>
        <time>2022-04-27T13:48:29Z</time>
      </trkpt>
      <trkpt lat="43.48642" lon="6.59283">
        <ele>23</ele>
        <time>2022-04-27T13:48:38Z</time>
      </trkpt>
      <trkpt lat="43.48652" lon="6.59283">
        <ele>23.2</ele>
        <time>2022-04-27T13:48:48Z</time>
      </trkpt>
      <trkpt lat="43.48661" lon="6.59282">
        <ele>23.1</ele>
        <time>2022-04-27T13:49:29Z</time>
      </trkpt>
      <trkpt lat="43.48667" lon="6.59273">
        <ele>23.2</ele>
        <time>2022-04-27T13:50:38Z</time>
      </trkpt>
      <trkpt lat="43.4867" lon="6.5926">
        <ele>23.4</ele>
        <time>2022-04-27T13:51:59Z</time>
      </trkpt>
      <trkpt lat="43.48678" lon="6.59252">
        <ele>23.4</ele>
        <time>2022-04-27T13:52:10Z</time>
      </trkpt>
      <trkpt lat="43.48687" lon="6.59245">
        <ele>23.7</ele>
        <time>2022-04-27T13:52:19Z</time>
      </trkpt>
      <trkpt lat="43.48696" lon="6.59241">
        <ele>23.8</ele>
        <time>2022-04-27T13:52:28Z</time>
      </trkpt>
      <trkpt lat="43.48705" lon="6.59239">
        <ele>23.9</ele>
        <time>2022-04-27T13:52:37Z</time>
      </trkpt>
      <trkpt lat="43.48714" lon="6.59235">
        <ele>24.2</ele>
        <time>2022-04-27T13:52:45Z</time>
      </trkpt>
      <trkpt lat="43.48722" lon="6.59241">
        <ele>24</ele>
        <time>2022-04-27T13:52:56Z</time>
      </trkpt>
      <trkpt lat="43.48729" lon="6.59251">
        <ele>22</ele>
        <time>2022-04-27T13:53:07Z</time>
      </trkpt>
      <trkpt lat="43.48739" lon="6.59251">
        <ele>21.3</ele>
        <time>2022-04-27T13:53:15Z</time>
      </trkpt>
      <trkpt lat="43.48747" lon="6.59244">
        <ele>21.4</ele>
        <time>2022-04-27T13:53:23Z</time>
      </trkpt>
      <trkpt lat="43.48757" lon="6.59241">
        <ele>21.4</ele>
        <time>2022-04-27T13:53:32Z</time>
      </trkpt>
      <trkpt lat="43.48765" lon="6.59237">
        <ele>21.6</ele>
        <time>2022-04-27T13:53:39Z</time>
      </trkpt>
      <trkpt lat="43.48775" lon="6.59236">
        <ele>21.4</ele>
        <time>2022-04-27T13:53:47Z</time>
      </trkpt>
      <trkpt lat="43.48783" lon="6.59231">
        <ele>21.2</ele>
        <time>2022-04-27T13:53:54Z</time>
      </trkpt>
      <trkpt lat="43.48792" lon="6.59226">
        <ele>21.3</ele>
        <time>2022-04-27T13:54:02Z</time>
      </trkpt>
      <trkpt lat="43.48802" lon="6.59221">
        <ele>21.1</ele>
        <time>2022-04-27T13:54:13Z</time>
      </trkpt>
      <trkpt lat="43.48803" lon="6.59209">
        <ele>21.8</ele>
        <time>2022-04-27T13:54:22Z</time>
      </trkpt>
      <trkpt lat="43.48804" lon="6.59196">
        <ele>23.7</ele>
        <time>2022-04-27T13:54:34Z</time>
      </trkpt>
      <trkpt lat="43.48812" lon="6.59191">
        <ele>24.6</ele>
        <time>2022-04-27T13:54:43Z</time>
      </trkpt>
      <trkpt lat="43.48821" lon="6.59188">
        <ele>25.4</ele>
        <time>2022-04-27T13:54:56Z</time>
      </trkpt>
      <trkpt lat="43.4883" lon="6.59186">
        <ele>25.5</ele>
        <time>2022-04-27T13:55:10Z</time>
      </trkpt>
      <trkpt lat="43.4884" lon="6.59184">
        <ele>25.9</ele>
        <time>2022-04-27T13:55:19Z</time>
      </trkpt>
      <trkpt lat="43.48849" lon="6.59182">
        <ele>26</ele>
        <time>2022-04-27T13:55:27Z</time>
      </trkpt>
      <trkpt lat="43.48858" lon="6.59183">
        <ele>26.1</ele>
        <time>2022-04-27T13:55:37Z</time>
      </trkpt>
      <trkpt lat="43.48868" lon="6.59185">
        <ele>26.1</ele>
        <time>2022-04-27T13:55:45Z</time>
      </trkpt>
      <trkpt lat="43.48877" lon="6.59186">
        <ele>26.1</ele>
        <time>2022-04-27T13:55:54Z</time>
      </trkpt>
      <trkpt lat="43.48886" lon="6.59189">
        <ele>26.3</ele>
        <time>2022-04-27T13:56:02Z</time>
      </trkpt>
      <trkpt lat="43.48895" lon="6.59195">
        <ele>26.1</ele>
        <time>2022-04-27T13:56:10Z</time>
      </trkpt>
      <trkpt lat="43.489" lon="6.59206">
        <ele>26.2</ele>
        <time>2022-04-27T13:56:20Z</time>
      </trkpt>
      <trkpt lat="43.48896" lon="6.59218">
        <ele>26.2</ele>
        <time>2022-04-27T13:56:30Z</time>
      </trkpt>
      <trkpt lat="43.48889" lon="6.59226">
        <ele>26.1</ele>
        <time>2022-04-27T13:56:40Z</time>
      </trkpt>
      <trkpt lat="43.48884" lon="6.59237">
        <ele>26.2</ele>
        <time>2022-04-27T13:56:52Z</time>
      </trkpt>
      <trkpt lat="43.48878" lon="6.59247">
        <ele>26</ele>
        <time>2022-04-27T13:57:24Z</time>
      </trkpt>
      <trkpt lat="43.48875" lon="6.59259">
        <ele>25.5</ele>
        <time>2022-04-27T13:57:32Z</time>
      </trkpt>
      <trkpt lat="43.48869" lon="6.5927">
        <ele>25.7</ele>
        <time>2022-04-27T13:57:41Z</time>
      </trkpt>
      <trkpt lat="43.48866" lon="6.59283">
        <ele>25.6</ele>
        <time>2022-04-27T13:57:53Z</time>
      </trkpt>
      <trkpt lat="43.48861" lon="6.59294">
        <ele>25.3</ele>
        <time>2022-04-27T13:58:02Z</time>
      </trkpt>
      <trkpt lat="43.48857" lon="6.59307">
        <ele>25.1</ele>
        <time>2022-04-27T13:58:10Z</time>
      </trkpt>
      <trkpt lat="43.48852" lon="6.59319">
        <ele>24.5</ele>
        <time>2022-04-27T13:58:18Z</time>
      </trkpt>
      <trkpt lat="43.48848" lon="6.59332">
        <ele>24.3</ele>
        <time>2022-04-27T13:58:26Z</time>
      </trkpt>
      <trkpt lat="43.48844" lon="6.59343">
        <ele>24</ele>
        <time>2022-04-27T13:58:35Z</time>
      </trkpt>
      <trkpt lat="43.48835" lon="6.59347">
        <ele>23.2</ele>
        <time>2022-04-27T13:58:50Z</time>
      </trkpt>
      <trkpt lat="43.48839" lon="6.59358">
        <ele>23</ele>
        <time>2022-04-27T14:00:08Z</time>
      </trkpt>
      <trkpt lat="43.48847" lon="6.5935">
        <ele>23.8</ele>
        <time>2022-04-27T14:04:19Z</time>
      </trkpt>
      <trkpt lat="43.48853" lon="6.5934">
        <ele>24.2</ele>
        <time>2022-04-27T14:04:31Z</time>
      </trkpt>
      <trkpt lat="43.48858" lon="6.59329">
        <ele>24.4</ele>
        <time>2022-04-27T14:04:40Z</time>
      </trkpt>
      <trkpt lat="43.48862" lon="6.59316">
        <ele>24.6</ele>
        <time>2022-04-27T14:04:49Z</time>
      </trkpt>
      <trkpt lat="43.48866" lon="6.59305">
        <ele>25.2</ele>
        <time>2022-04-27T14:04:57Z</time>
      </trkpt>
      <trkpt lat="43.48871" lon="6.59293">
        <ele>25.5</ele>
        <time>2022-04-27T14:05:05Z</time>
      </trkpt>
      <trkpt lat="43.48875" lon="6.59282">
        <ele>25.8</ele>
        <time>2022-04-27T14:05:13Z</time>
      </trkpt>
      <trkpt lat="43.4888" lon="6.59271">
        <ele>26.3</ele>
        <time>2022-04-27T14:05:21Z</time>
      </trkpt>
      <trkpt lat="43.48885" lon="6.59259">
        <ele>26.2</ele>
        <time>2022-04-27T14:05:29Z</time>
      </trkpt>
      <trkpt lat="43.48889" lon="6.59247">
        <ele>26.3</ele>
        <time>2022-04-27T14:05:37Z</time>
      </trkpt>
      <trkpt lat="43.48895" lon="6.59236">
        <ele>26.6</ele>
        <time>2022-04-27T14:05:46Z</time>
      </trkpt>
      <trkpt lat="43.48901" lon="6.59225">
        <ele>26.8</ele>
        <time>2022-04-27T14:05:54Z</time>
      </trkpt>
      <trkpt lat="43.48905" lon="6.59213">
        <ele>26.9</ele>
        <time>2022-04-27T14:06:02Z</time>
      </trkpt>
      <trkpt lat="43.48915" lon="6.59217">
        <ele>26.4</ele>
        <time>2022-04-27T14:06:18Z</time>
      </trkpt>
      <trkpt lat="43.48924" lon="6.59218">
        <ele>24.7</ele>
        <time>2022-04-27T14:06:30Z</time>
      </trkpt>
      <trkpt lat="43.48916" lon="6.59212">
        <ele>25.5</ele>
        <time>2022-04-27T14:07:17Z</time>
      </trkpt>
      <trkpt lat="43.48909" lon="6.59203">
        <ele>26.5</ele>
        <time>2022-04-27T14:07:33Z</time>
      </trkpt>
      <trkpt lat="43.48901" lon="6.59199">
        <ele>27</ele>
        <time>2022-04-27T14:08:26Z</time>
      </trkpt>
      <trkpt lat="43.48894" lon="6.5919">
        <ele>26.8</ele>
        <time>2022-04-27T14:08:39Z</time>
      </trkpt>
      <trkpt lat="43.48885" lon="6.59187">
        <ele>26.6</ele>
        <time>2022-04-27T14:08:48Z</time>
      </trkpt>
      <trkpt lat="43.48875" lon="6.59188">
        <ele>26.6</ele>
        <time>2022-04-27T14:08:56Z</time>
      </trkpt>
      <trkpt lat="43.48866" lon="6.59186">
        <ele>26.7</ele>
        <time>2022-04-27T14:09:08Z</time>
      </trkpt>
      <trkpt lat="43.48857" lon="6.59182">
        <ele>26.9</ele>
        <time>2022-04-27T14:09:15Z</time>
      </trkpt>
      <trkpt lat="43.48848" lon="6.59182">
        <ele>26.5</ele>
        <time>2022-04-27T14:09:24Z</time>
      </trkpt>
      <trkpt lat="43.48837" lon="6.59183">
        <ele>26.4</ele>
        <time>2022-04-27T14:09:32Z</time>
      </trkpt>
      <trkpt lat="43.48829" lon="6.59185">
        <ele>26.4</ele>
        <time>2022-04-27T14:09:40Z</time>
      </trkpt>
      <trkpt lat="43.4882" lon="6.59186">
        <ele>26.6</ele>
        <time>2022-04-27T14:09:48Z</time>
      </trkpt>
      <trkpt lat="43.48809" lon="6.59189">
        <ele>26.4</ele>
        <time>2022-04-27T14:09:57Z</time>
      </trkpt>
      <trkpt lat="43.488" lon="6.5919">
        <ele>26.3</ele>
        <time>2022-04-27T14:10:04Z</time>
      </trkpt>
      <trkpt lat="43.48792" lon="6.59194">
        <ele>26.1</ele>
        <time>2022-04-27T14:10:12Z</time>
      </trkpt>
      <trkpt lat="43.48782" lon="6.59197">
        <ele>25.8</ele>
        <time>2022-04-27T14:10:20Z</time>
      </trkpt>
      <trkpt lat="43.48773" lon="6.59201">
        <ele>25.7</ele>
        <time>2022-04-27T14:10:28Z</time>
      </trkpt>
      <trkpt lat="43.48764" lon="6.59205">
        <ele>25.6</ele>
        <time>2022-04-27T14:10:37Z</time>
      </trkpt>
      <trkpt lat="43.48755" lon="6.59209">
        <ele>25.8</ele>
        <time>2022-04-27T14:10:45Z</time>
      </trkpt>
      <trkpt lat="43.48746" lon="6.59214">
        <ele>25.4</ele>
        <time>2022-04-27T14:10:53Z</time>
      </trkpt>
      <trkpt lat="43.48736" lon="6.59218">
        <ele>25.5</ele>
        <time>2022-04-27T14:11:01Z</time>
      </trkpt>
      <trkpt lat="43.48727" lon="6.59221">
        <ele>25.8</ele>
        <time>2022-04-27T14:11:09Z</time>
      </trkpt>
      <trkpt lat="43.48718" lon="6.59225">
        <ele>25.7</ele>
        <time>2022-04-27T14:11:17Z</time>
      </trkpt>
      <trkpt lat="43.48709" lon="6.5923">
        <ele>25.6</ele>
        <time>2022-04-27T14:11:25Z</time>
      </trkpt>
      <trkpt lat="43.487" lon="6.59236">
        <ele>25.7</ele>
        <time>2022-04-27T14:11:33Z</time>
      </trkpt>
      <trkpt lat="43.48691" lon="6.59241">
        <ele>25.5</ele>
        <time>2022-04-27T14:11:40Z</time>
      </trkpt>
      <trkpt lat="43.48683" lon="6.59248">
        <ele>25.3</ele>
        <time>2022-04-27T14:11:48Z</time>
      </trkpt>
      <trkpt lat="43.48675" lon="6.59255">
        <ele>25.1</ele>
        <time>2022-04-27T14:11:56Z</time>
      </trkpt>
      <trkpt lat="43.48667" lon="6.59261">
        <ele>25.2</ele>
        <time>2022-04-27T14:12:04Z</time>
      </trkpt>
      <trkpt lat="43.48658" lon="6.59266">
        <ele>25.2</ele>
        <time>2022-04-27T14:12:11Z</time>
      </trkpt>
      <trkpt lat="43.4865" lon="6.59273">
        <ele>25.1</ele>
        <time>2022-04-27T14:12:19Z</time>
      </trkpt>
      <trkpt lat="43.48641" lon="6.59279">
        <ele>25</ele>
        <time>2022-04-27T14:12:27Z</time>
      </trkpt>
      <trkpt lat="43.48633" lon="6.59286">
        <ele>25.1</ele>
        <time>2022-04-27T14:12:35Z</time>
      </trkpt>
      <trkpt lat="43.48625" lon="6.59292">
        <ele>24.9</ele>
        <time>2022-04-27T14:12:43Z</time>
      </trkpt>
      <trkpt lat="43.48616" lon="6.59296">
        <ele>24.8</ele>
        <time>2022-04-27T14:12:52Z</time>
      </trkpt>
      <trkpt lat="43.48608" lon="6.59302">
        <ele>24.5</ele>
        <time>2022-04-27T14:13:32Z</time>
      </trkpt>
      <trkpt lat="43.48599" lon="6.59299">
        <ele>24.2</ele>
        <time>2022-04-27T14:14:41Z</time>
      </trkpt>
      <trkpt lat="43.48591" lon="6.59293">
        <ele>24.1</ele>
        <time>2022-04-27T14:14:49Z</time>
      </trkpt>
      <trkpt lat="43.48582" lon="6.59288">
        <ele>24</ele>
        <time>2022-04-27T14:14:58Z</time>
      </trkpt>
      <trkpt lat="43.48573" lon="6.59284">
        <ele>24.1</ele>
        <time>2022-04-27T14:15:07Z</time>
      </trkpt>
      <trkpt lat="43.48564" lon="6.5928">
        <ele>23.8</ele>
        <time>2022-04-27T14:15:15Z</time>
      </trkpt>
      <trkpt lat="43.48556" lon="6.59274">
        <ele>23.6</ele>
        <time>2022-04-27T14:15:24Z</time>
      </trkpt>
      <trkpt lat="43.48548" lon="6.59267">
        <ele>23.9</ele>
        <time>2022-04-27T14:15:32Z</time>
      </trkpt>
      <trkpt lat="43.48541" lon="6.5926">
        <ele>23.6</ele>
        <time>2022-04-27T14:15:42Z</time>
      </trkpt>
      <trkpt lat="43.48532" lon="6.59254">
        <ele>23.7</ele>
        <time>2022-04-27T14:15:49Z</time>
      </trkpt>
      <trkpt lat="43.48523" lon="6.59249">
        <ele>24</ele>
        <time>2022-04-27T14:15:57Z</time>
      </trkpt>
      <trkpt lat="43.48515" lon="6.59242">
        <ele>24</ele>
        <time>2022-04-27T14:16:07Z</time>
      </trkpt>
      <trkpt lat="43.48506" lon="6.59239">
        <ele>24</ele>
        <time>2022-04-27T14:16:13Z</time>
      </trkpt>
      <trkpt lat="43.48497" lon="6.59237">
        <ele>24</ele>
        <time>2022-04-27T14:16:20Z</time>
      </trkpt>
      <trkpt lat="43.48488" lon="6.59234">
        <ele>24.1</ele>
        <time>2022-04-27T14:16:28Z</time>
      </trkpt>
      <trkpt lat="43.48479" lon="6.5923">
        <ele>23.9</ele>
        <time>2022-04-27T14:16:35Z</time>
      </trkpt>
      <trkpt lat="43.4847" lon="6.59225">
        <ele>23.8</ele>
        <time>2022-04-27T14:16:43Z</time>
      </trkpt>
      <trkpt lat="43.48461" lon="6.59222">
        <ele>24</ele>
        <time>2022-04-27T14:16:50Z</time>
      </trkpt>
      <trkpt lat="43.48452" lon="6.59219">
        <ele>24.3</ele>
        <time>2022-04-27T14:16:57Z</time>
      </trkpt>
      <trkpt lat="43.48442" lon="6.59217">
        <ele>24.2</ele>
        <time>2022-04-27T14:17:04Z</time>
      </trkpt>
      <trkpt lat="43.48433" lon="6.59215">
        <ele>24</ele>
        <time>2022-04-27T14:17:12Z</time>
      </trkpt>
      <trkpt lat="43.48424" lon="6.59212">
        <ele>24.2</ele>
        <time>2022-04-27T14:17:20Z</time>
      </trkpt>
      <trkpt lat="43.48414" lon="6.59209">
        <ele>24.1</ele>
        <time>2022-04-27T14:17:27Z</time>
      </trkpt>
      <trkpt lat="43.48404" lon="6.59207">
        <ele>24.3</ele>
        <time>2022-04-27T14:17:35Z</time>
      </trkpt>
      <trkpt lat="43.48395" lon="6.59203">
        <ele>24.1</ele>
        <time>2022-04-27T14:17:42Z</time>
      </trkpt>
      <trkpt lat="43.48386" lon="6.59199">
        <ele>24.2</ele>
        <time>2022-04-27T14:17:50Z</time>
      </trkpt>
      <trkpt lat="43.48377" lon="6.59195">
        <ele>24.4</ele>
        <time>2022-04-27T14:17:58Z</time>
      </trkpt>
      <trkpt lat="43.48369" lon="6.59189">
        <ele>24.2</ele>
        <time>2022-04-27T14:18:08Z</time>
      </trkpt>
      <trkpt lat="43.4836" lon="6.59189">
        <ele>24.1</ele>
        <time>2022-04-27T14:21:58Z</time>
      </trkpt>
      <trkpt lat="43.48353" lon="6.5918">
        <ele>24</ele>
        <time>2022-04-27T14:22:12Z</time>
      </trkpt>
      <trkpt lat="43.4835" lon="6.59168">
        <ele>24.4</ele>
        <time>2022-04-27T14:22:23Z</time>
      </trkpt>
      <trkpt lat="43.48346" lon="6.59156">
        <ele>24.9</ele>
        <time>2022-04-27T14:22:33Z</time>
      </trkpt>
      <trkpt lat="43.48339" lon="6.59147">
        <ele>24.3</ele>
        <time>2022-04-27T14:22:42Z</time>
      </trkpt>
      <trkpt lat="43.48331" lon="6.59138">
        <ele>24.2</ele>
        <time>2022-04-27T14:22:51Z</time>
      </trkpt>
      <trkpt lat="43.48325" lon="6.59128">
        <ele>24.1</ele>
        <time>2022-04-27T14:22:59Z</time>
      </trkpt>
      <trkpt lat="43.48318" lon="6.5912">
        <ele>23.9</ele>
        <time>2022-04-27T14:23:07Z</time>
      </trkpt>
      <trkpt lat="43.48312" lon="6.59111">
        <ele>24.2</ele>
        <time>2022-04-27T14:23:16Z</time>
      </trkpt>
      <trkpt lat="43.48304" lon="6.59103">
        <ele>24</ele>
        <time>2022-04-27T14:23:25Z</time>
      </trkpt>
      <trkpt lat="43.48296" lon="6.59097">
        <ele>24.1</ele>
        <time>2022-04-27T14:23:33Z</time>
      </trkpt>
      <trkpt lat="43.48288" lon="6.59088">
        <ele>24</ele>
        <time>2022-04-27T14:23:40Z</time>
      </trkpt>
      <trkpt lat="43.4828" lon="6.5908">
        <ele>24</ele>
        <time>2022-04-27T14:23:47Z</time>
      </trkpt>
      <trkpt lat="43.48274" lon="6.59072">
        <ele>24</ele>
        <time>2022-04-27T14:23:54Z</time>
      </trkpt>
      <trkpt lat="43.48267" lon="6.59062">
        <ele>24.1</ele>
        <time>2022-04-27T14:24:02Z</time>
      </trkpt>
      <trkpt lat="43.4826" lon="6.59053">
        <ele>23.7</ele>
        <time>2022-04-27T14:24:10Z</time>
      </trkpt>
      <trkpt lat="43.48251" lon="6.59047">
        <ele>23.5</ele>
        <time>2022-04-27T14:24:20Z</time>
      </trkpt>
      <trkpt lat="43.48241" lon="6.59046">
        <ele>24.1</ele>
        <time>2022-04-27T14:24:29Z</time>
      </trkpt>
      <trkpt lat="43.48232" lon="6.59046">
        <ele>24.1</ele>
        <time>2022-04-27T14:24:37Z</time>
      </trkpt>
      <trkpt lat="43.48222" lon="6.59045">
        <ele>24.3</ele>
        <time>2022-04-27T14:24:43Z</time>
      </trkpt>
      <trkpt lat="43.48211" lon="6.59044">
        <ele>24.4</ele>
        <time>2022-04-27T14:24:51Z</time>
      </trkpt>
      <trkpt lat="43.48202" lon="6.59047">
        <ele>24.1</ele>
        <time>2022-04-27T14:24:58Z</time>
      </trkpt>
      <trkpt lat="43.48193" lon="6.59052">
        <ele>24</ele>
        <time>2022-04-27T14:25:05Z</time>
      </trkpt>
      <trkpt lat="43.48186" lon="6.59062">
        <ele>23.9</ele>
        <time>2022-04-27T14:25:13Z</time>
      </trkpt>
      <trkpt lat="43.4818" lon="6.59072">
        <ele>23.9</ele>
        <time>2022-04-27T14:25:21Z</time>
      </trkpt>
      <trkpt lat="43.48174" lon="6.59082">
        <ele>23.9</ele>
        <time>2022-04-27T14:25:28Z</time>
      </trkpt>
      <trkpt lat="43.4817" lon="6.59095">
        <ele>23.9</ele>
        <time>2022-04-27T14:25:36Z</time>
      </trkpt>
      <trkpt lat="43.48165" lon="6.59107">
        <ele>23.8</ele>
        <time>2022-04-27T14:25:43Z</time>
      </trkpt>
      <trkpt lat="43.48158" lon="6.59116">
        <ele>23.6</ele>
        <time>2022-04-27T14:25:51Z</time>
      </trkpt>
      <trkpt lat="43.48149" lon="6.59121">
        <ele>23.5</ele>
        <time>2022-04-27T14:25:58Z</time>
      </trkpt>
      <trkpt lat="43.4814" lon="6.59123">
        <ele>23.7</ele>
        <time>2022-04-27T14:26:06Z</time>
      </trkpt>
      <trkpt lat="43.48131" lon="6.59123">
        <ele>23.6</ele>
        <time>2022-04-27T14:26:13Z</time>
      </trkpt>
      <trkpt lat="43.48121" lon="6.59121">
        <ele>23</ele>
        <time>2022-04-27T14:26:21Z</time>
      </trkpt>
      <trkpt lat="43.48112" lon="6.59119">
        <ele>23</ele>
        <time>2022-04-27T14:26:29Z</time>
      </trkpt>
      <trkpt lat="43.48103" lon="6.59115">
        <ele>23.3</ele>
        <time>2022-04-27T14:26:37Z</time>
      </trkpt>
      <trkpt lat="43.48093" lon="6.59113">
        <ele>23.5</ele>
        <time>2022-04-27T14:26:45Z</time>
      </trkpt>
      <trkpt lat="43.48084" lon="6.59108">
        <ele>23.5</ele>
        <time>2022-04-27T14:26:53Z</time>
      </trkpt>
      <trkpt lat="43.48075" lon="6.59106">
        <ele>23.3</ele>
        <time>2022-04-27T14:27:00Z</time>
      </trkpt>
      <trkpt lat="43.48066" lon="6.59102">
        <ele>23.1</ele>
        <time>2022-04-27T14:27:07Z</time>
      </trkpt>
      <trkpt lat="43.48057" lon="6.59099">
        <ele>23.3</ele>
        <time>2022-04-27T14:27:14Z</time>
      </trkpt>
      <trkpt lat="43.48048" lon="6.59095">
        <ele>23.4</ele>
        <time>2022-04-27T14:27:22Z</time>
      </trkpt>
      <trkpt lat="43.4804" lon="6.5909">
        <ele>23.4</ele>
        <time>2022-04-27T14:27:30Z</time>
      </trkpt>
      <trkpt lat="43.48032" lon="6.59083">
        <ele>23.1</ele>
        <time>2022-04-27T14:27:37Z</time>
      </trkpt>
      <trkpt lat="43.48024" lon="6.59075">
        <ele>22.9</ele>
        <time>2022-04-27T14:27:45Z</time>
      </trkpt>
      <trkpt lat="43.48017" lon="6.59067">
        <ele>22.7</ele>
        <time>2022-04-27T14:27:54Z</time>
      </trkpt>
      <trkpt lat="43.4801" lon="6.59058">
        <ele>22.5</ele>
        <time>2022-04-27T14:28:06Z</time>
      </trkpt>
      <trkpt lat="43.48003" lon="6.59049">
        <ele>22.7</ele>
        <time>2022-04-27T14:28:15Z</time>
      </trkpt>
      <trkpt lat="43.47999" lon="6.59037">
        <ele>22.7</ele>
        <time>2022-04-27T14:28:24Z</time>
      </trkpt>
      <trkpt lat="43.47997" lon="6.59024">
        <ele>22.4</ele>
        <time>2022-04-27T14:28:31Z</time>
      </trkpt>
      <trkpt lat="43.47995" lon="6.59011">
        <ele>22.4</ele>
        <time>2022-04-27T14:28:39Z</time>
      </trkpt>
      <trkpt lat="43.47996" lon="6.58998">
        <ele>22</ele>
        <time>2022-04-27T14:28:46Z</time>
      </trkpt>
      <trkpt lat="43.47995" lon="6.58985">
        <ele>22.2</ele>
        <time>2022-04-27T14:28:54Z</time>
      </trkpt>
      <trkpt lat="43.47992" lon="6.58973">
        <ele>22</ele>
        <time>2022-04-27T14:29:01Z</time>
      </trkpt>
      <trkpt lat="43.47985" lon="6.58965">
        <ele>22</ele>
        <time>2022-04-27T14:29:09Z</time>
      </trkpt>
      <trkpt lat="43.47976" lon="6.58957">
        <ele>22.1</ele>
        <time>2022-04-27T14:29:17Z</time>
      </trkpt>
      <trkpt lat="43.47968" lon="6.5895">
        <ele>22.3</ele>
        <time>2022-04-27T14:29:25Z</time>
      </trkpt>
      <trkpt lat="43.4796" lon="6.58943">
        <ele>22.3</ele>
        <time>2022-04-27T14:29:32Z</time>
      </trkpt>
      <trkpt lat="43.47952" lon="6.58935">
        <ele>22.4</ele>
        <time>2022-04-27T14:29:40Z</time>
      </trkpt>
      <trkpt lat="43.47943" lon="6.58932">
        <ele>22.5</ele>
        <time>2022-04-27T14:29:48Z</time>
      </trkpt>
      <trkpt lat="43.47933" lon="6.58932">
        <ele>22.6</ele>
        <time>2022-04-27T14:29:56Z</time>
      </trkpt>
      <trkpt lat="43.47924" lon="6.58935">
        <ele>22.7</ele>
        <time>2022-04-27T14:30:03Z</time>
      </trkpt>
      <trkpt lat="43.47915" lon="6.58939">
        <ele>22.7</ele>
        <time>2022-04-27T14:30:10Z</time>
      </trkpt>
      <trkpt lat="43.47905" lon="6.5894">
        <ele>22.8</ele>
        <time>2022-04-27T14:30:18Z</time>
      </trkpt>
      <trkpt lat="43.47894" lon="6.5894">
        <ele>23</ele>
        <time>2022-04-27T14:30:26Z</time>
      </trkpt>
      <trkpt lat="43.47885" lon="6.58938">
        <ele>23.2</ele>
        <time>2022-04-27T14:30:33Z</time>
      </trkpt>
      <trkpt lat="43.47876" lon="6.58935">
        <ele>22.8</ele>
        <time>2022-04-27T14:30:41Z</time>
      </trkpt>
      <trkpt lat="43.47869" lon="6.58927">
        <ele>23.3</ele>
        <time>2022-04-27T14:31:04Z</time>
      </trkpt>
      <trkpt lat="43.47878" lon="6.58924">
        <ele>24.3</ele>
        <time>2022-04-27T14:32:53Z</time>
      </trkpt>
      <trkpt lat="43.47888" lon="6.58926">
        <ele>24.7</ele>
        <time>2022-04-27T14:33:02Z</time>
      </trkpt>
      <trkpt lat="43.47897" lon="6.58923">
        <ele>25.5</ele>
        <time>2022-04-27T14:33:11Z</time>
      </trkpt>
      <trkpt lat="43.47906" lon="6.58917">
        <ele>26.5</ele>
        <time>2022-04-27T14:33:20Z</time>
      </trkpt>
      <trkpt lat="43.47914" lon="6.58909">
        <ele>26.9</ele>
        <time>2022-04-27T14:33:29Z</time>
      </trkpt>
      <trkpt lat="43.4792" lon="6.589">
        <ele>27.2</ele>
        <time>2022-04-27T14:33:38Z</time>
      </trkpt>
      <trkpt lat="43.47926" lon="6.58889">
        <ele>28.3</ele>
        <time>2022-04-27T14:33:46Z</time>
      </trkpt>
      <trkpt lat="43.4793" lon="6.58878">
        <ele>29</ele>
        <time>2022-04-27T14:33:54Z</time>
      </trkpt>
      <trkpt lat="43.47936" lon="6.58867">
        <ele>29.7</ele>
        <time>2022-04-27T14:34:03Z</time>
      </trkpt>
      <trkpt lat="43.47939" lon="6.58855">
        <ele>30.7</ele>
        <time>2022-04-27T14:34:13Z</time>
      </trkpt>
      <trkpt lat="43.47944" lon="6.58843">
        <ele>31.7</ele>
        <time>2022-04-27T14:34:22Z</time>
      </trkpt>
      <trkpt lat="43.47948" lon="6.58832">
        <ele>32.4</ele>
        <time>2022-04-27T14:34:30Z</time>
      </trkpt>
      <trkpt lat="43.47953" lon="6.58821">
        <ele>32.9</ele>
        <time>2022-04-27T14:34:38Z</time>
      </trkpt>
      <trkpt lat="43.47959" lon="6.58811">
        <ele>33.7</ele>
        <time>2022-04-27T14:34:46Z</time>
      </trkpt>
      <trkpt lat="43.47965" lon="6.588">
        <ele>34.8</ele>
        <time>2022-04-27T14:35:06Z</time>
      </trkpt>
      <trkpt lat="43.47972" lon="6.58791">
        <ele>35.5</ele>
        <time>2022-04-27T14:35:16Z</time>
      </trkpt>
      <trkpt lat="43.47978" lon="6.58782">
        <ele>36.6</ele>
        <time>2022-04-27T14:35:24Z</time>
      </trkpt>
      <trkpt lat="43.47984" lon="6.58772">
        <ele>37.4</ele>
        <time>2022-04-27T14:35:33Z</time>
      </trkpt>
      <trkpt lat="43.47991" lon="6.58763">
        <ele>37.6</ele>
        <time>2022-04-27T14:35:42Z</time>
      </trkpt>
      <trkpt lat="43.47998" lon="6.58754">
        <ele>39.1</ele>
        <time>2022-04-27T14:35:51Z</time>
      </trkpt>
      <trkpt lat="43.48004" lon="6.58743">
        <ele>40.3</ele>
        <time>2022-04-27T14:36:00Z</time>
      </trkpt>
      <trkpt lat="43.48009" lon="6.58732">
        <ele>41.2</ele>
        <time>2022-04-27T14:36:09Z</time>
      </trkpt>
      <trkpt lat="43.48012" lon="6.58719">
        <ele>41.9</ele>
        <time>2022-04-27T14:36:18Z</time>
      </trkpt>
      <trkpt lat="43.48015" lon="6.58706">
        <ele>42.8</ele>
        <time>2022-04-27T14:36:27Z</time>
      </trkpt>
      <trkpt lat="43.48016" lon="6.58693">
        <ele>43.8</ele>
        <time>2022-04-27T14:36:36Z</time>
      </trkpt>
      <trkpt lat="43.4802" lon="6.58681">
        <ele>44.5</ele>
        <time>2022-04-27T14:36:45Z</time>
      </trkpt>
      <trkpt lat="43.48025" lon="6.58669">
        <ele>45.4</ele>
        <time>2022-04-27T14:36:54Z</time>
      </trkpt>
      <trkpt lat="43.48032" lon="6.58659">
        <ele>46.3</ele>
        <time>2022-04-27T14:37:03Z</time>
      </trkpt>
      <trkpt lat="43.48039" lon="6.58651">
        <ele>47.3</ele>
        <time>2022-04-27T14:37:13Z</time>
      </trkpt>
      <trkpt lat="43.48045" lon="6.5864">
        <ele>48.2</ele>
        <time>2022-04-27T14:37:22Z</time>
      </trkpt>
      <trkpt lat="43.4805" lon="6.5863">
        <ele>48.8</ele>
        <time>2022-04-27T14:37:31Z</time>
      </trkpt>
      <trkpt lat="43.48055" lon="6.58619">
        <ele>49.4</ele>
        <time>2022-04-27T14:37:40Z</time>
      </trkpt>
      <trkpt lat="43.48061" lon="6.58609">
        <ele>50.2</ele>
        <time>2022-04-27T14:37:48Z</time>
      </trkpt>
      <trkpt lat="43.48068" lon="6.586">
        <ele>51.3</ele>
        <time>2022-04-27T14:37:57Z</time>
      </trkpt>
      <trkpt lat="43.48075" lon="6.58591">
        <ele>52</ele>
        <time>2022-04-27T14:38:05Z</time>
      </trkpt>
      <trkpt lat="43.48081" lon="6.58582">
        <ele>52.9</ele>
        <time>2022-04-27T14:38:14Z</time>
      </trkpt>
      <trkpt lat="43.48086" lon="6.58571">
        <ele>53.7</ele>
        <time>2022-04-27T14:38:23Z</time>
      </trkpt>
      <trkpt lat="43.48092" lon="6.5856">
        <ele>55.1</ele>
        <time>2022-04-27T14:38:35Z</time>
      </trkpt>
      <trkpt lat="43.48094" lon="6.58547">
        <ele>55.8</ele>
        <time>2022-04-27T14:38:44Z</time>
      </trkpt>
      <trkpt lat="43.48094" lon="6.58534">
        <ele>56.2</ele>
        <time>2022-04-27T14:38:53Z</time>
      </trkpt>
      <trkpt lat="43.48093" lon="6.5852">
        <ele>56.4</ele>
        <time>2022-04-27T14:39:03Z</time>
      </trkpt>
      <trkpt lat="43.48094" lon="6.58508">
        <ele>57.4</ele>
        <time>2022-04-27T14:39:13Z</time>
      </trkpt>
      <trkpt lat="43.48095" lon="6.58495">
        <ele>58.3</ele>
        <time>2022-04-27T14:39:23Z</time>
      </trkpt>
      <trkpt lat="43.4809" lon="6.58485">
        <ele>59.1</ele>
        <time>2022-04-27T14:39:34Z</time>
      </trkpt>
      <trkpt lat="43.48082" lon="6.58493">
        <ele>59.9</ele>
        <time>2022-04-27T14:39:43Z</time>
      </trkpt>
      <trkpt lat="43.48078" lon="6.58505">
        <ele>60.4</ele>
        <time>2022-04-27T14:39:53Z</time>
      </trkpt>
      <trkpt lat="43.48073" lon="6.58515">
        <ele>61.1</ele>
        <time>2022-04-27T14:40:03Z</time>
      </trkpt>
      <trkpt lat="43.48066" lon="6.58525">
        <ele>61.4</ele>
        <time>2022-04-27T14:40:12Z</time>
      </trkpt>
      <trkpt lat="43.48058" lon="6.58531">
        <ele>61.8</ele>
        <time>2022-04-27T14:40:21Z</time>
      </trkpt>
      <trkpt lat="43.48049" lon="6.58537">
        <ele>62.9</ele>
        <time>2022-04-27T14:40:31Z</time>
      </trkpt>
      <trkpt lat="43.4804" lon="6.5854">
        <ele>64.3</ele>
        <time>2022-04-27T14:40:40Z</time>
      </trkpt>
      <trkpt lat="43.4803" lon="6.58541">
        <ele>65.4</ele>
        <time>2022-04-27T14:40:49Z</time>
      </trkpt>
      <trkpt lat="43.48022" lon="6.58544">
        <ele>66.7</ele>
        <time>2022-04-27T14:40:57Z</time>
      </trkpt>
      <trkpt lat="43.48012" lon="6.58547">
        <ele>67.9</ele>
        <time>2022-04-27T14:41:06Z</time>
      </trkpt>
      <trkpt lat="43.48003" lon="6.58542">
        <ele>68.9</ele>
        <time>2022-04-27T14:41:16Z</time>
      </trkpt>
      <trkpt lat="43.48003" lon="6.58529">
        <ele>69.1</ele>
        <time>2022-04-27T14:41:26Z</time>
      </trkpt>
      <trkpt lat="43.48007" lon="6.58517">
        <ele>69.7</ele>
        <time>2022-04-27T14:41:35Z</time>
      </trkpt>
      <trkpt lat="43.48013" lon="6.58507">
        <ele>70.4</ele>
        <time>2022-04-27T14:41:43Z</time>
      </trkpt>
      <trkpt lat="43.48018" lon="6.58496">
        <ele>70.9</ele>
        <time>2022-04-27T14:41:52Z</time>
      </trkpt>
      <trkpt lat="43.48023" lon="6.58484">
        <ele>71.6</ele>
        <time>2022-04-27T14:42:02Z</time>
      </trkpt>
      <trkpt lat="43.48028" lon="6.58472">
        <ele>72.3</ele>
        <time>2022-04-27T14:42:11Z</time>
      </trkpt>
      <trkpt lat="43.48033" lon="6.58462">
        <ele>72.9</ele>
        <time>2022-04-27T14:42:20Z</time>
      </trkpt>
      <trkpt lat="43.48039" lon="6.58452">
        <ele>73.7</ele>
        <time>2022-04-27T14:42:29Z</time>
      </trkpt>
      <trkpt lat="43.48045" lon="6.58442">
        <ele>74.1</ele>
        <time>2022-04-27T14:42:38Z</time>
      </trkpt>
      <trkpt lat="43.48045" lon="6.58429">
        <ele>74.9</ele>
        <time>2022-04-27T14:42:48Z</time>
      </trkpt>
      <trkpt lat="43.48042" lon="6.58417">
        <ele>75.8</ele>
        <time>2022-04-27T14:43:22Z</time>
      </trkpt>
      <trkpt lat="43.48036" lon="6.58406">
        <ele>76.7</ele>
        <time>2022-04-27T14:43:32Z</time>
      </trkpt>
      <trkpt lat="43.48032" lon="6.58395">
        <ele>76.8</ele>
        <time>2022-04-27T14:43:41Z</time>
      </trkpt>
      <trkpt lat="43.4803" lon="6.58381">
        <ele>76.8</ele>
        <time>2022-04-27T14:43:51Z</time>
      </trkpt>
      <trkpt lat="43.48031" lon="6.58368">
        <ele>77.3</ele>
        <time>2022-04-27T14:44:01Z</time>
      </trkpt>
      <trkpt lat="43.48031" lon="6.58354">
        <ele>77.5</ele>
        <time>2022-04-27T14:44:10Z</time>
      </trkpt>
      <trkpt lat="43.4803" lon="6.58342">
        <ele>77.8</ele>
        <time>2022-04-27T14:44:19Z</time>
      </trkpt>
      <trkpt lat="43.48029" lon="6.58328">
        <ele>78.4</ele>
        <time>2022-04-27T14:44:28Z</time>
      </trkpt>
      <trkpt lat="43.48031" lon="6.58314">
        <ele>78.7</ele>
        <time>2022-04-27T14:44:37Z</time>
      </trkpt>
      <trkpt lat="43.48032" lon="6.58302">
        <ele>79.1</ele>
        <time>2022-04-27T14:44:45Z</time>
      </trkpt>
      <trkpt lat="43.48034" lon="6.58288">
        <ele>79.5</ele>
        <time>2022-04-27T14:44:54Z</time>
      </trkpt>
      <trkpt lat="43.48034" lon="6.58276">
        <ele>80.1</ele>
        <time>2022-04-27T14:45:02Z</time>
      </trkpt>
      <trkpt lat="43.48028" lon="6.58266">
        <ele>80.4</ele>
        <time>2022-04-27T14:45:27Z</time>
      </trkpt>
      <trkpt lat="43.48024" lon="6.58255">
        <ele>81.4</ele>
        <time>2022-04-27T14:52:04Z</time>
      </trkpt>
      <trkpt lat="43.48023" lon="6.58241">
        <ele>81.8</ele>
        <time>2022-04-27T14:52:14Z</time>
      </trkpt>
      <trkpt lat="43.48023" lon="6.58227">
        <ele>82.2</ele>
        <time>2022-04-27T14:52:23Z</time>
      </trkpt>
      <trkpt lat="43.48025" lon="6.58215">
        <ele>83.1</ele>
        <time>2022-04-27T14:52:33Z</time>
      </trkpt>
      <trkpt lat="43.48028" lon="6.58202">
        <ele>83.8</ele>
        <time>2022-04-27T14:52:42Z</time>
      </trkpt>
      <trkpt lat="43.48034" lon="6.58192">
        <ele>84.7</ele>
        <time>2022-04-27T14:52:51Z</time>
      </trkpt>
      <trkpt lat="43.48039" lon="6.5818">
        <ele>85.5</ele>
        <time>2022-04-27T14:53:00Z</time>
      </trkpt>
      <trkpt lat="43.48045" lon="6.58172">
        <ele>86.4</ele>
        <time>2022-04-27T14:53:09Z</time>
      </trkpt>
      <trkpt lat="43.48051" lon="6.58161">
        <ele>87.5</ele>
        <time>2022-04-27T14:53:29Z</time>
      </trkpt>
      <trkpt lat="43.48057" lon="6.5815">
        <ele>88</ele>
        <time>2022-04-27T14:53:37Z</time>
      </trkpt>
      <trkpt lat="43.48059" lon="6.58137">
        <ele>89</ele>
        <time>2022-04-27T14:53:46Z</time>
      </trkpt>
      <trkpt lat="43.48065" lon="6.58127">
        <ele>89.3</ele>
        <time>2022-04-27T14:53:54Z</time>
      </trkpt>
      <trkpt lat="43.4807" lon="6.58116">
        <ele>89.5</ele>
        <time>2022-04-27T14:54:02Z</time>
      </trkpt>
      <trkpt lat="43.48077" lon="6.58108">
        <ele>89.9</ele>
        <time>2022-04-27T14:54:09Z</time>
      </trkpt>
      <trkpt lat="43.48083" lon="6.58097">
        <ele>89.8</ele>
        <time>2022-04-27T14:54:18Z</time>
      </trkpt>
      <trkpt lat="43.48088" lon="6.58085">
        <ele>89.7</ele>
        <time>2022-04-27T14:54:27Z</time>
      </trkpt>
      <trkpt lat="43.48093" lon="6.58074">
        <ele>89.8</ele>
        <time>2022-04-27T14:54:36Z</time>
      </trkpt>
      <trkpt lat="43.48099" lon="6.58064">
        <ele>90.5</ele>
        <time>2022-04-27T14:54:45Z</time>
      </trkpt>
      <trkpt lat="43.48105" lon="6.58053">
        <ele>90.5</ele>
        <time>2022-04-27T14:54:54Z</time>
      </trkpt>
      <trkpt lat="43.48112" lon="6.58044">
        <ele>91.1</ele>
        <time>2022-04-27T14:55:03Z</time>
      </trkpt>
      <trkpt lat="43.48119" lon="6.58036">
        <ele>91.6</ele>
        <time>2022-04-27T14:55:11Z</time>
      </trkpt>
      <trkpt lat="43.48125" lon="6.58026">
        <ele>92.1</ele>
        <time>2022-04-27T14:55:19Z</time>
      </trkpt>
      <trkpt lat="43.4813" lon="6.58013">
        <ele>92.5</ele>
        <time>2022-04-27T14:55:28Z</time>
      </trkpt>
      <trkpt lat="43.48133" lon="6.58">
        <ele>93.2</ele>
        <time>2022-04-27T14:55:37Z</time>
      </trkpt>
      <trkpt lat="43.48134" lon="6.57987">
        <ele>94</ele>
        <time>2022-04-27T14:55:46Z</time>
      </trkpt>
      <trkpt lat="43.48132" lon="6.57974">
        <ele>94.7</ele>
        <time>2022-04-27T14:55:55Z</time>
      </trkpt>
      <trkpt lat="43.48131" lon="6.57961">
        <ele>95.2</ele>
        <time>2022-04-27T14:56:04Z</time>
      </trkpt>
      <trkpt lat="43.48132" lon="6.57948">
        <ele>95.5</ele>
        <time>2022-04-27T14:56:12Z</time>
      </trkpt>
      <trkpt lat="43.48135" lon="6.57936">
        <ele>95.6</ele>
        <time>2022-04-27T14:56:20Z</time>
      </trkpt>
      <trkpt lat="43.48138" lon="6.57924">
        <ele>96.2</ele>
        <time>2022-04-27T14:56:28Z</time>
      </trkpt>
      <trkpt lat="43.48141" lon="6.57912">
        <ele>96.6</ele>
        <time>2022-04-27T14:56:40Z</time>
      </trkpt>
      <trkpt lat="43.48133" lon="6.57906">
        <ele>96.3</ele>
        <time>2022-04-27T14:58:54Z</time>
      </trkpt>
      <trkpt lat="43.48124" lon="6.57911">
        <ele>97.4</ele>
        <time>2022-04-27T14:59:03Z</time>
      </trkpt>
      <trkpt lat="43.48114" lon="6.57914">
        <ele>98.8</ele>
        <time>2022-04-27T14:59:13Z</time>
      </trkpt>
      <trkpt lat="43.48105" lon="6.57917">
        <ele>99.4</ele>
        <time>2022-04-27T14:59:21Z</time>
      </trkpt>
      <trkpt lat="43.48096" lon="6.57921">
        <ele>99.8</ele>
        <time>2022-04-27T14:59:29Z</time>
      </trkpt>
      <trkpt lat="43.48087" lon="6.57924">
        <ele>100.3</ele>
        <time>2022-04-27T14:59:37Z</time>
      </trkpt>
      <trkpt lat="43.48078" lon="6.5793">
        <ele>100.9</ele>
        <time>2022-04-27T14:59:46Z</time>
      </trkpt>
      <trkpt lat="43.48071" lon="6.57938">
        <ele>101.9</ele>
        <time>2022-04-27T15:00:34Z</time>
      </trkpt>
      <trkpt lat="43.48062" lon="6.57935">
        <ele>102.8</ele>
        <time>2022-04-27T15:00:51Z</time>
      </trkpt>
      <trkpt lat="43.48052" lon="6.57934">
        <ele>106.8</ele>
        <time>2022-04-27T15:01:06Z</time>
      </trkpt>
      <trkpt lat="43.48043" lon="6.57929">
        <ele>108.3</ele>
        <time>2022-04-27T15:01:16Z</time>
      </trkpt>
      <trkpt lat="43.48034" lon="6.57926">
        <ele>110.7</ele>
        <time>2022-04-27T15:01:28Z</time>
      </trkpt>
      <trkpt lat="43.48024" lon="6.57924">
        <ele>113</ele>
        <time>2022-04-27T15:01:39Z</time>
      </trkpt>
      <trkpt lat="43.48014" lon="6.57922">
        <ele>114.6</ele>
        <time>2022-04-27T15:01:50Z</time>
      </trkpt>
      <trkpt lat="43.48006" lon="6.57916">
        <ele>114.5</ele>
        <time>2022-04-27T15:01:59Z</time>
      </trkpt>
      <trkpt lat="43.47999" lon="6.57908">
        <ele>114.3</ele>
        <time>2022-04-27T15:02:28Z</time>
      </trkpt>
      <trkpt lat="43.47989" lon="6.57908">
        <ele>113.9</ele>
        <time>2022-04-27T15:02:49Z</time>
      </trkpt>
      <trkpt lat="43.4798" lon="6.57905">
        <ele>113.4</ele>
        <time>2022-04-27T15:03:51Z</time>
      </trkpt>
      <trkpt lat="43.4797" lon="6.57906">
        <ele>113.2</ele>
        <time>2022-04-27T15:04:01Z</time>
      </trkpt>
      <trkpt lat="43.47961" lon="6.57908">
        <ele>112.9</ele>
        <time>2022-04-27T15:04:15Z</time>
      </trkpt>
      <trkpt lat="43.47952" lon="6.57912">
        <ele>113.1</ele>
        <time>2022-04-27T15:04:27Z</time>
      </trkpt>
      <trkpt lat="43.47943" lon="6.57916">
        <ele>113.6</ele>
        <time>2022-04-27T15:04:39Z</time>
      </trkpt>
      <trkpt lat="43.47933" lon="6.57918">
        <ele>112.7</ele>
        <time>2022-04-27T15:04:53Z</time>
      </trkpt>
      <trkpt lat="43.47924" lon="6.57919">
        <ele>110.9</ele>
        <time>2022-04-27T15:05:12Z</time>
      </trkpt>
      <trkpt lat="43.47915" lon="6.57919">
        <ele>109</ele>
        <time>2022-04-27T15:05:30Z</time>
      </trkpt>
      <trkpt lat="43.47907" lon="6.57914">
        <ele>107</ele>
        <time>2022-04-27T15:05:48Z</time>
      </trkpt>
      <trkpt lat="43.47902" lon="6.57903">
        <ele>105.8</ele>
        <time>2022-04-27T15:06:04Z</time>
      </trkpt>
      <trkpt lat="43.47902" lon="6.5789">
        <ele>104.2</ele>
        <time>2022-04-27T15:06:21Z</time>
      </trkpt>
      <trkpt lat="43.47896" lon="6.57881">
        <ele>102.6</ele>
        <time>2022-04-27T15:06:38Z</time>
      </trkpt>
      <trkpt lat="43.47887" lon="6.57873">
        <ele>101.5</ele>
        <time>2022-04-27T15:06:49Z</time>
      </trkpt>
      <trkpt lat="43.4788" lon="6.57864">
        <ele>101.4</ele>
        <time>2022-04-27T15:06:58Z</time>
      </trkpt>
      <trkpt lat="43.47887" lon="6.57855">
        <ele>100.2</ele>
        <time>2022-04-27T15:07:38Z</time>
      </trkpt>
      <trkpt lat="43.47895" lon="6.57849">
        <ele>98.6</ele>
        <time>2022-04-27T15:07:51Z</time>
      </trkpt>
      <trkpt lat="43.47902" lon="6.57839">
        <ele>97.4</ele>
        <time>2022-04-27T15:08:02Z</time>
      </trkpt>
      <trkpt lat="43.47908" lon="6.5783">
        <ele>97.1</ele>
        <time>2022-04-27T15:08:10Z</time>
      </trkpt>
      <trkpt lat="43.47912" lon="6.57819">
        <ele>96.7</ele>
        <time>2022-04-27T15:08:21Z</time>
      </trkpt>
      <trkpt lat="43.47915" lon="6.57807">
        <ele>96.6</ele>
        <time>2022-04-27T15:08:30Z</time>
      </trkpt>
      <trkpt lat="43.47919" lon="6.57794">
        <ele>95.8</ele>
        <time>2022-04-27T15:08:39Z</time>
      </trkpt>
      <trkpt lat="43.47923" lon="6.57783">
        <ele>96</ele>
        <time>2022-04-27T15:08:50Z</time>
      </trkpt>
      <trkpt lat="43.47927" lon="6.57771">
        <ele>96.3</ele>
        <time>2022-04-27T15:09:00Z</time>
      </trkpt>
      <trkpt lat="43.47929" lon="6.57758">
        <ele>95.8</ele>
        <time>2022-04-27T15:09:09Z</time>
      </trkpt>
      <trkpt lat="43.47921" lon="6.57753">
        <ele>94.7</ele>
        <time>2022-04-27T15:10:08Z</time>
      </trkpt>
      <trkpt lat="43.47913" lon="6.57759">
        <ele>93</ele>
        <time>2022-04-27T15:10:17Z</time>
      </trkpt>
      <trkpt lat="43.47905" lon="6.57767">
        <ele>93.2</ele>
        <time>2022-04-27T15:10:27Z</time>
      </trkpt>
      <trkpt lat="43.47896" lon="6.57769">
        <ele>92.1</ele>
        <time>2022-04-27T15:10:37Z</time>
      </trkpt>
      <trkpt lat="43.4789" lon="6.57759">
        <ele>91.6</ele>
        <time>2022-04-27T15:10:48Z</time>
      </trkpt>
      <trkpt lat="43.47884" lon="6.57749">
        <ele>91.5</ele>
        <time>2022-04-27T15:11:01Z</time>
      </trkpt>
      <trkpt lat="43.47877" lon="6.57741">
        <ele>91</ele>
        <time>2022-04-27T15:11:10Z</time>
      </trkpt>
      <trkpt lat="43.47869" lon="6.57734">
        <ele>90.7</ele>
        <time>2022-04-27T15:11:18Z</time>
      </trkpt>
      <trkpt lat="43.47861" lon="6.57728">
        <ele>90.4</ele>
        <time>2022-04-27T15:11:26Z</time>
      </trkpt>
      <trkpt lat="43.47852" lon="6.57724">
        <ele>90.4</ele>
        <time>2022-04-27T15:11:35Z</time>
      </trkpt>
      <trkpt lat="43.47843" lon="6.5772">
        <ele>90.3</ele>
        <time>2022-04-27T15:11:44Z</time>
      </trkpt>
      <trkpt lat="43.47834" lon="6.57718">
        <ele>90</ele>
        <time>2022-04-27T15:11:53Z</time>
      </trkpt>
      <trkpt lat="43.47825" lon="6.57715">
        <ele>89.9</ele>
        <time>2022-04-27T15:12:02Z</time>
      </trkpt>
      <trkpt lat="43.47815" lon="6.57716">
        <ele>89.3</ele>
        <time>2022-04-27T15:12:12Z</time>
      </trkpt>
      <trkpt lat="43.47806" lon="6.57711">
        <ele>88.8</ele>
        <time>2022-04-27T15:12:21Z</time>
      </trkpt>
      <trkpt lat="43.47798" lon="6.57705">
        <ele>88.7</ele>
        <time>2022-04-27T15:12:29Z</time>
      </trkpt>
      <trkpt lat="43.4779" lon="6.57698">
        <ele>88.6</ele>
        <time>2022-04-27T15:12:38Z</time>
      </trkpt>
      <trkpt lat="43.4778" lon="6.57693">
        <ele>88.6</ele>
        <time>2022-04-27T15:12:47Z</time>
      </trkpt>
      <trkpt lat="43.47771" lon="6.57689">
        <ele>88.3</ele>
        <time>2022-04-27T15:12:56Z</time>
      </trkpt>
      <trkpt lat="43.47762" lon="6.57687">
        <ele>87.9</ele>
        <time>2022-04-27T15:13:05Z</time>
      </trkpt>
      <trkpt lat="43.47753" lon="6.57685">
        <ele>87.5</ele>
        <time>2022-04-27T15:13:13Z</time>
      </trkpt>
      <trkpt lat="43.47748" lon="6.57675">
        <ele>86.8</ele>
        <time>2022-04-27T15:13:23Z</time>
      </trkpt>
      <trkpt lat="43.47746" lon="6.57663">
        <ele>85.5</ele>
        <time>2022-04-27T15:17:13Z</time>
      </trkpt>
      <trkpt lat="43.47749" lon="6.57651">
        <ele>84.7</ele>
        <time>2022-04-27T15:17:28Z</time>
      </trkpt>
      <trkpt lat="43.47752" lon="6.57639">
        <ele>83</ele>
        <time>2022-04-27T15:17:40Z</time>
      </trkpt>
      <trkpt lat="43.47755" lon="6.57626">
        <ele>81.9</ele>
        <time>2022-04-27T15:17:51Z</time>
      </trkpt>
      <trkpt lat="43.47758" lon="6.57615">
        <ele>80.8</ele>
        <time>2022-04-27T15:18:01Z</time>
      </trkpt>
      <trkpt lat="43.4776" lon="6.57603">
        <ele>79.6</ele>
        <time>2022-04-27T15:18:12Z</time>
      </trkpt>
      <trkpt lat="43.47764" lon="6.57591">
        <ele>79.3</ele>
        <time>2022-04-27T15:18:22Z</time>
      </trkpt>
      <trkpt lat="43.47765" lon="6.57578">
        <ele>78.1</ele>
        <time>2022-04-27T15:18:31Z</time>
      </trkpt>
      <trkpt lat="43.47768" lon="6.57566">
        <ele>76.7</ele>
        <time>2022-04-27T15:18:43Z</time>
      </trkpt>
      <trkpt lat="43.4777" lon="6.57553">
        <ele>75.6</ele>
        <time>2022-04-27T15:18:52Z</time>
      </trkpt>
      <trkpt lat="43.47772" lon="6.5754">
        <ele>74.9</ele>
        <time>2022-04-27T15:19:02Z</time>
      </trkpt>
      <trkpt lat="43.47775" lon="6.57528">
        <ele>73.6</ele>
        <time>2022-04-27T15:19:13Z</time>
      </trkpt>
      <trkpt lat="43.47779" lon="6.57516">
        <ele>73.1</ele>
        <time>2022-04-27T15:19:24Z</time>
      </trkpt>
      <trkpt lat="43.47782" lon="6.57504">
        <ele>72</ele>
        <time>2022-04-27T15:19:44Z</time>
      </trkpt>
      <trkpt lat="43.47785" lon="6.57491">
        <ele>71.6</ele>
        <time>2022-04-27T15:20:33Z</time>
      </trkpt>
      <trkpt lat="43.47788" lon="6.57479">
        <ele>70.8</ele>
        <time>2022-04-27T15:20:42Z</time>
      </trkpt>
      <trkpt lat="43.4779" lon="6.57467">
        <ele>69.8</ele>
        <time>2022-04-27T15:20:50Z</time>
      </trkpt>
      <trkpt lat="43.47791" lon="6.57454">
        <ele>68.7</ele>
        <time>2022-04-27T15:20:59Z</time>
      </trkpt>
      <trkpt lat="43.47792" lon="6.57442">
        <ele>67.2</ele>
        <time>2022-04-27T15:21:08Z</time>
      </trkpt>
      <trkpt lat="43.47793" lon="6.57429">
        <ele>66.1</ele>
        <time>2022-04-27T15:21:17Z</time>
      </trkpt>
      <trkpt lat="43.47794" lon="6.57416">
        <ele>64.5</ele>
        <time>2022-04-27T15:21:26Z</time>
      </trkpt>
      <trkpt lat="43.47795" lon="6.57403">
        <ele>63.5</ele>
        <time>2022-04-27T15:21:35Z</time>
      </trkpt>
      <trkpt lat="43.47796" lon="6.5739">
        <ele>63.2</ele>
        <time>2022-04-27T15:21:47Z</time>
      </trkpt>
      <trkpt lat="43.4779" lon="6.5738">
        <ele>62.5</ele>
        <time>2022-04-27T15:24:08Z</time>
      </trkpt>
      <trkpt lat="43.47782" lon="6.57375">
        <ele>61.6</ele>
        <time>2022-04-27T15:24:34Z</time>
      </trkpt>
      <trkpt lat="43.47773" lon="6.57371">
        <ele>60.8</ele>
        <time>2022-04-27T15:24:42Z</time>
      </trkpt>
      <trkpt lat="43.47764" lon="6.57367">
        <ele>60.3</ele>
        <time>2022-04-27T15:24:53Z</time>
      </trkpt>
      <trkpt lat="43.47756" lon="6.57362">
        <ele>59.3</ele>
        <time>2022-04-27T15:25:06Z</time>
      </trkpt>
      <trkpt lat="43.47747" lon="6.57356">
        <ele>58.4</ele>
        <time>2022-04-27T15:25:15Z</time>
      </trkpt>
      <trkpt lat="43.47738" lon="6.5735">
        <ele>57.5</ele>
        <time>2022-04-27T15:25:24Z</time>
      </trkpt>
      <trkpt lat="43.47729" lon="6.57346">
        <ele>57</ele>
        <time>2022-04-27T15:25:34Z</time>
      </trkpt>
      <trkpt lat="43.4772" lon="6.57341">
        <ele>56.5</ele>
        <time>2022-04-27T15:25:42Z</time>
      </trkpt>
      <trkpt lat="43.47711" lon="6.57335">
        <ele>56.1</ele>
        <time>2022-04-27T15:25:52Z</time>
      </trkpt>
      <trkpt lat="43.47702" lon="6.57333">
        <ele>56</ele>
        <time>2022-04-27T15:26:00Z</time>
      </trkpt>
      <trkpt lat="43.47692" lon="6.57332">
        <ele>55.6</ele>
        <time>2022-04-27T15:26:09Z</time>
      </trkpt>
      <trkpt lat="43.47683" lon="6.57332">
        <ele>55.4</ele>
        <time>2022-04-27T15:26:18Z</time>
      </trkpt>
      <trkpt lat="43.47673" lon="6.5733">
        <ele>55</ele>
        <time>2022-04-27T15:26:27Z</time>
      </trkpt>
      <trkpt lat="43.47664" lon="6.5733">
        <ele>54</ele>
        <time>2022-04-27T15:26:36Z</time>
      </trkpt>
      <trkpt lat="43.47655" lon="6.57328">
        <ele>53.4</ele>
        <time>2022-04-27T15:26:46Z</time>
      </trkpt>
      <trkpt lat="43.47646" lon="6.57325">
        <ele>52.9</ele>
        <time>2022-04-27T15:26:57Z</time>
      </trkpt>
      <trkpt lat="43.47637" lon="6.5732">
        <ele>51.7</ele>
        <time>2022-04-27T15:27:07Z</time>
      </trkpt>
      <trkpt lat="43.4763" lon="6.57311">
        <ele>50.7</ele>
        <time>2022-04-27T15:27:17Z</time>
      </trkpt>
      <trkpt lat="43.47629" lon="6.57299">
        <ele>49.8</ele>
        <time>2022-04-27T15:27:27Z</time>
      </trkpt>
      <trkpt lat="43.47631" lon="6.57285">
        <ele>47.9</ele>
        <time>2022-04-27T15:27:36Z</time>
      </trkpt>
      <trkpt lat="43.47635" lon="6.57272">
        <ele>46.6</ele>
        <time>2022-04-27T15:27:46Z</time>
      </trkpt>
      <trkpt lat="43.47641" lon="6.57262">
        <ele>45.6</ele>
        <time>2022-04-27T15:27:55Z</time>
      </trkpt>
      <trkpt lat="43.47646" lon="6.57251">
        <ele>44.5</ele>
        <time>2022-04-27T15:28:06Z</time>
      </trkpt>
      <trkpt lat="43.47653" lon="6.57241">
        <ele>43.8</ele>
        <time>2022-04-27T15:28:16Z</time>
      </trkpt>
      <trkpt lat="43.47661" lon="6.57233">
        <ele>42.9</ele>
        <time>2022-04-27T15:28:26Z</time>
      </trkpt>
      <trkpt lat="43.4767" lon="6.57233">
        <ele>41.7</ele>
        <time>2022-04-27T15:28:36Z</time>
      </trkpt>
      <trkpt lat="43.4768" lon="6.57235">
        <ele>40</ele>
        <time>2022-04-27T15:28:46Z</time>
      </trkpt>
      <trkpt lat="43.47689" lon="6.57236">
        <ele>37.9</ele>
        <time>2022-04-27T15:28:59Z</time>
      </trkpt>
      <trkpt lat="43.47698" lon="6.57239">
        <ele>36.1</ele>
        <time>2022-04-27T15:29:08Z</time>
      </trkpt>
      <trkpt lat="43.47707" lon="6.57241">
        <ele>34.5</ele>
        <time>2022-04-27T15:29:20Z</time>
      </trkpt>
      <trkpt lat="43.47716" lon="6.57239">
        <ele>33.9</ele>
        <time>2022-04-27T15:29:50Z</time>
      </trkpt>
      <trkpt lat="43.47725" lon="6.57236">
        <ele>33.7</ele>
        <time>2022-04-27T15:30:04Z</time>
      </trkpt>
      <trkpt lat="43.47734" lon="6.57232">
        <ele>32.9</ele>
        <time>2022-04-27T15:30:16Z</time>
      </trkpt>
      <trkpt lat="43.47743" lon="6.57228">
        <ele>33.1</ele>
        <time>2022-04-27T15:30:26Z</time>
      </trkpt>
      <trkpt lat="43.47752" lon="6.57228">
        <ele>32.9</ele>
        <time>2022-04-27T15:30:36Z</time>
      </trkpt>
      <trkpt lat="43.47762" lon="6.57228">
        <ele>32.8</ele>
        <time>2022-04-27T15:30:44Z</time>
      </trkpt>
      <trkpt lat="43.47771" lon="6.57227">
        <ele>33.3</ele>
        <time>2022-04-27T15:30:53Z</time>
      </trkpt>
      <trkpt lat="43.4778" lon="6.57227">
        <ele>32.8</ele>
        <time>2022-04-27T15:31:04Z</time>
      </trkpt>
      <trkpt lat="43.4779" lon="6.57224">
        <ele>32.5</ele>
        <time>2022-04-27T15:31:15Z</time>
      </trkpt>
      <trkpt lat="43.47799" lon="6.57222">
        <ele>32.1</ele>
        <time>2022-04-27T15:31:23Z</time>
      </trkpt>
      <trkpt lat="43.47809" lon="6.57219">
        <ele>31.6</ele>
        <time>2022-04-27T15:31:30Z</time>
      </trkpt>
      <trkpt lat="43.47818" lon="6.57216">
        <ele>30.9</ele>
        <time>2022-04-27T15:31:37Z</time>
      </trkpt>
      <trkpt lat="43.47827" lon="6.57213">
        <ele>30.5</ele>
        <time>2022-04-27T15:31:44Z</time>
      </trkpt>
      <trkpt lat="43.47836" lon="6.57209">
        <ele>29.5</ele>
        <time>2022-04-27T15:31:53Z</time>
      </trkpt>
      <trkpt lat="43.47846" lon="6.57204">
        <ele>28.6</ele>
        <time>2022-04-27T15:32:05Z</time>
      </trkpt>
      <trkpt lat="43.47854" lon="6.57197">
        <ele>27.8</ele>
        <time>2022-04-27T15:32:13Z</time>
      </trkpt>
      <trkpt lat="43.47862" lon="6.5719">
        <ele>27.3</ele>
        <time>2022-04-27T15:32:23Z</time>
      </trkpt>
      <trkpt lat="43.47871" lon="6.57183">
        <ele>26.7</ele>
        <time>2022-04-27T15:32:33Z</time>
      </trkpt>
      <trkpt lat="43.47879" lon="6.57175">
        <ele>26.3</ele>
        <time>2022-04-27T15:32:40Z</time>
      </trkpt>
      <trkpt lat="43.47888" lon="6.57169">
        <ele>25.9</ele>
        <time>2022-04-27T15:32:48Z</time>
      </trkpt>
      <trkpt lat="43.47897" lon="6.57165">
        <ele>24.9</ele>
        <time>2022-04-27T15:32:59Z</time>
      </trkpt>
      <trkpt lat="43.47905" lon="6.57159">
        <ele>24.7</ele>
        <time>2022-04-27T15:33:09Z</time>
      </trkpt>
      <trkpt lat="43.47914" lon="6.57156">
        <ele>25.2</ele>
        <time>2022-04-27T15:33:20Z</time>
      </trkpt>
      <trkpt lat="43.47923" lon="6.57154">
        <ele>25.9</ele>
        <time>2022-04-27T15:33:30Z</time>
      </trkpt>
      <trkpt lat="43.47932" lon="6.57152">
        <ele>26.1</ele>
        <time>2022-04-27T15:33:38Z</time>
      </trkpt>
      <trkpt lat="43.47941" lon="6.57151">
        <ele>26.6</ele>
        <time>2022-04-27T15:33:48Z</time>
      </trkpt>
      <trkpt lat="43.4795" lon="6.57147">
        <ele>26.8</ele>
        <time>2022-04-27T15:33:54Z</time>
      </trkpt>
      <trkpt lat="43.4796" lon="6.57147">
        <ele>27.1</ele>
        <time>2022-04-27T15:34:03Z</time>
      </trkpt>
      <trkpt lat="43.47969" lon="6.57149">
        <ele>27.2</ele>
        <time>2022-04-27T15:34:12Z</time>
      </trkpt>
      <trkpt lat="43.47978" lon="6.57145">
        <ele>25.6</ele>
        <time>2022-04-27T15:34:38Z</time>
      </trkpt>
      <trkpt lat="43.47988" lon="6.57142">
        <ele>27.3</ele>
        <time>2022-04-27T15:34:51Z</time>
      </trkpt>
      <trkpt lat="43.47997" lon="6.57139">
        <ele>27.6</ele>
        <time>2022-04-27T15:35:01Z</time>
      </trkpt>
      <trkpt lat="43.48006" lon="6.57137">
        <ele>27.9</ele>
        <time>2022-04-27T15:35:10Z</time>
      </trkpt>
      <trkpt lat="43.48015" lon="6.57132">
        <ele>28.1</ele>
        <time>2022-04-27T15:35:19Z</time>
      </trkpt>
      <trkpt lat="43.48022" lon="6.57123">
        <ele>28.3</ele>
        <time>2022-04-27T15:35:27Z</time>
      </trkpt>
      <trkpt lat="43.48027" lon="6.57112">
        <ele>28.2</ele>
        <time>2022-04-27T15:35:37Z</time>
      </trkpt>
      <trkpt lat="43.4803" lon="6.571">
        <ele>28.4</ele>
        <time>2022-04-27T15:35:46Z</time>
      </trkpt>
      <trkpt lat="43.48033" lon="6.57088">
        <ele>28.7</ele>
        <time>2022-04-27T15:35:55Z</time>
      </trkpt>
      <trkpt lat="43.48037" lon="6.57077">
        <ele>28.8</ele>
        <time>2022-04-27T15:36:04Z</time>
      </trkpt>
      <trkpt lat="43.48039" lon="6.57064">
        <ele>29</ele>
        <time>2022-04-27T15:36:46Z</time>
      </trkpt>
      <trkpt lat="43.48042" lon="6.57052">
        <ele>29.1</ele>
        <time>2022-04-27T15:36:54Z</time>
      </trkpt>
      <trkpt lat="43.48047" lon="6.57042">
        <ele>29.5</ele>
        <time>2022-04-27T15:37:07Z</time>
      </trkpt>
      <trkpt lat="43.48049" lon="6.57029">
        <ele>29.9</ele>
        <time>2022-04-27T15:37:17Z</time>
      </trkpt>
      <trkpt lat="43.48052" lon="6.57017">
        <ele>30.3</ele>
        <time>2022-04-27T15:37:25Z</time>
      </trkpt>
      <trkpt lat="43.48054" lon="6.57004">
        <ele>30.6</ele>
        <time>2022-04-27T15:37:33Z</time>
      </trkpt>
      <trkpt lat="43.48057" lon="6.56991">
        <ele>31.2</ele>
        <time>2022-04-27T15:37:41Z</time>
      </trkpt>
      <trkpt lat="43.48059" lon="6.56977">
        <ele>31.5</ele>
        <time>2022-04-27T15:37:49Z</time>
      </trkpt>
      <trkpt lat="43.48061" lon="6.56963">
        <ele>32</ele>
        <time>2022-04-27T15:37:57Z</time>
      </trkpt>
      <trkpt lat="43.48064" lon="6.56951">
        <ele>32.5</ele>
        <time>2022-04-27T15:38:05Z</time>
      </trkpt>
      <trkpt lat="43.48065" lon="6.56938">
        <ele>32.7</ele>
        <time>2022-04-27T15:38:13Z</time>
      </trkpt>
      <trkpt lat="43.48059" lon="6.56927">
        <ele>33.1</ele>
        <time>2022-04-27T15:38:21Z</time>
      </trkpt>
      <trkpt lat="43.48052" lon="6.5692">
        <ele>33.1</ele>
        <time>2022-04-27T15:38:28Z</time>
      </trkpt>
      <trkpt lat="43.48043" lon="6.56915">
        <ele>33.5</ele>
        <time>2022-04-27T15:38:37Z</time>
      </trkpt>
      <trkpt lat="43.48036" lon="6.56907">
        <ele>33.3</ele>
        <time>2022-04-27T15:38:47Z</time>
      </trkpt>
      <trkpt lat="43.4804" lon="6.56896">
        <ele>33.5</ele>
        <time>2022-04-27T15:38:57Z</time>
      </trkpt>
      <trkpt lat="43.48046" lon="6.56885">
        <ele>33.5</ele>
        <time>2022-04-27T15:39:06Z</time>
      </trkpt>
      <trkpt lat="43.48052" lon="6.56874">
        <ele>33.5</ele>
        <time>2022-04-27T15:39:17Z</time>
      </trkpt>
      <trkpt lat="43.48054" lon="6.56861">
        <ele>33.6</ele>
        <time>2022-04-27T15:39:26Z</time>
      </trkpt>
      <trkpt lat="43.48057" lon="6.5685">
        <ele>34.1</ele>
        <time>2022-04-27T15:39:35Z</time>
      </trkpt>
      <trkpt lat="43.4806" lon="6.56837">
        <ele>34.1</ele>
        <time>2022-04-27T15:39:45Z</time>
      </trkpt>
      <trkpt lat="43.48062" lon="6.56824">
        <ele>33.9</ele>
        <time>2022-04-27T15:39:53Z</time>
      </trkpt>
      <trkpt lat="43.48063" lon="6.56812">
        <ele>34.4</ele>
        <time>2022-04-27T15:40:01Z</time>
      </trkpt>
      <trkpt lat="43.48064" lon="6.56798">
        <ele>34.7</ele>
        <time>2022-04-27T15:40:09Z</time>
      </trkpt>
      <trkpt lat="43.48065" lon="6.56785">
        <ele>34.7</ele>
        <time>2022-04-27T15:40:18Z</time>
      </trkpt>
      <trkpt lat="43.48061" lon="6.56774">
        <ele>34.8</ele>
        <time>2022-04-27T15:40:27Z</time>
      </trkpt>
      <trkpt lat="43.48053" lon="6.56767">
        <ele>35.2</ele>
        <time>2022-04-27T15:40:37Z</time>
      </trkpt>
      <trkpt lat="43.48045" lon="6.56763">
        <ele>35.2</ele>
        <time>2022-04-27T15:40:54Z</time>
      </trkpt>
      <trkpt lat="43.48035" lon="6.5676">
        <ele>35.3</ele>
        <time>2022-04-27T15:41:01Z</time>
      </trkpt>
      <trkpt lat="43.48025" lon="6.56757">
        <ele>35.4</ele>
        <time>2022-04-27T15:41:09Z</time>
      </trkpt>
      <trkpt lat="43.48015" lon="6.56757">
        <ele>35.3</ele>
        <time>2022-04-27T15:41:16Z</time>
      </trkpt>
      <trkpt lat="43.48006" lon="6.56757">
        <ele>35</ele>
        <time>2022-04-27T15:41:23Z</time>
      </trkpt>
      <trkpt lat="43.47996" lon="6.56761">
        <ele>34.4</ele>
        <time>2022-04-27T15:41:32Z</time>
      </trkpt>
      <trkpt lat="43.47988" lon="6.56768">
        <ele>34</ele>
        <time>2022-04-27T15:41:41Z</time>
      </trkpt>
      <trkpt lat="43.47979" lon="6.56774">
        <ele>33.4</ele>
        <time>2022-04-27T15:41:51Z</time>
      </trkpt>
      <trkpt lat="43.47972" lon="6.56783">
        <ele>32.8</ele>
        <time>2022-04-27T15:42:02Z</time>
      </trkpt>
      <trkpt lat="43.47966" lon="6.56794">
        <ele>32</ele>
        <time>2022-04-27T15:42:12Z</time>
      </trkpt>
      <trkpt lat="43.47963" lon="6.56805">
        <ele>31.9</ele>
        <time>2022-04-27T15:42:39Z</time>
      </trkpt>
      <trkpt lat="43.47955" lon="6.56813">
        <ele>31.4</ele>
        <time>2022-04-27T15:43:18Z</time>
      </trkpt>
      <trkpt lat="43.47948" lon="6.56821">
        <ele>30.9</ele>
        <time>2022-04-27T15:43:42Z</time>
      </trkpt>
      <trkpt lat="43.47939" lon="6.56815">
        <ele>31.1</ele>
        <time>2022-04-27T15:43:54Z</time>
      </trkpt>
      <trkpt lat="43.47931" lon="6.56807">
        <ele>31.7</ele>
        <time>2022-04-27T15:44:03Z</time>
      </trkpt>
      <trkpt lat="43.47923" lon="6.56799">
        <ele>32.2</ele>
        <time>2022-04-27T15:44:12Z</time>
      </trkpt>
      <trkpt lat="43.47915" lon="6.5679">
        <ele>32.2</ele>
        <time>2022-04-27T15:44:20Z</time>
      </trkpt>
      <trkpt lat="43.47908" lon="6.56782">
        <ele>32</ele>
        <time>2022-04-27T15:44:28Z</time>
      </trkpt>
      <trkpt lat="43.47899" lon="6.56776">
        <ele>32.4</ele>
        <time>2022-04-27T15:44:47Z</time>
      </trkpt>
      <trkpt lat="43.47896" lon="6.56763">
        <ele>32.4</ele>
        <time>2022-04-27T15:44:58Z</time>
      </trkpt>
      <trkpt lat="43.4789" lon="6.56753">
        <ele>32.1</ele>
        <time>2022-04-27T15:45:12Z</time>
      </trkpt>
      <trkpt lat="43.47889" lon="6.5674">
        <ele>32.1</ele>
        <time>2022-04-27T15:45:21Z</time>
      </trkpt>
      <trkpt lat="43.47887" lon="6.56727">
        <ele>32.4</ele>
        <time>2022-04-27T15:45:30Z</time>
      </trkpt>
      <trkpt lat="43.4788" lon="6.56718">
        <ele>32.3</ele>
        <time>2022-04-27T15:45:39Z</time>
      </trkpt>
      <trkpt lat="43.47876" lon="6.56706">
        <ele>32.4</ele>
        <time>2022-04-27T15:46:09Z</time>
      </trkpt>
      <trkpt lat="43.47877" lon="6.56692">
        <ele>32.7</ele>
        <time>2022-04-27T15:46:18Z</time>
      </trkpt>
      <trkpt lat="43.47875" lon="6.5668">
        <ele>33.1</ele>
        <time>2022-04-27T15:46:27Z</time>
      </trkpt>
      <trkpt lat="43.47871" lon="6.56667">
        <ele>33.7</ele>
        <time>2022-04-27T15:46:36Z</time>
      </trkpt>
      <trkpt lat="43.47862" lon="6.56664">
        <ele>34</ele>
        <time>2022-04-27T15:46:44Z</time>
      </trkpt>
      <trkpt lat="43.47852" lon="6.56664">
        <ele>34.2</ele>
        <time>2022-04-27T15:46:52Z</time>
      </trkpt>
      <trkpt lat="43.47843" lon="6.56661">
        <ele>34.2</ele>
        <time>2022-04-27T15:47:01Z</time>
      </trkpt>
      <trkpt lat="43.47833" lon="6.56659">
        <ele>34.7</ele>
        <time>2022-04-27T15:47:09Z</time>
      </trkpt>
      <trkpt lat="43.47824" lon="6.56658">
        <ele>35.2</ele>
        <time>2022-04-27T15:47:17Z</time>
      </trkpt>
      <trkpt lat="43.47813" lon="6.56659">
        <ele>35.3</ele>
        <time>2022-04-27T15:47:25Z</time>
      </trkpt>
      <trkpt lat="43.47804" lon="6.56659">
        <ele>35.2</ele>
        <time>2022-04-27T15:47:33Z</time>
      </trkpt>
      <trkpt lat="43.47795" lon="6.56661">
        <ele>35.5</ele>
        <time>2022-04-27T15:47:41Z</time>
      </trkpt>
      <trkpt lat="43.47785" lon="6.56663">
        <ele>35.6</ele>
        <time>2022-04-27T15:47:50Z</time>
      </trkpt>
      <trkpt lat="43.47775" lon="6.56662">
        <ele>35.3</ele>
        <time>2022-04-27T15:47:57Z</time>
      </trkpt>
      <trkpt lat="43.47765" lon="6.56663">
        <ele>35</ele>
        <time>2022-04-27T15:48:05Z</time>
      </trkpt>
      <trkpt lat="43.47756" lon="6.56662">
        <ele>34.7</ele>
        <time>2022-04-27T15:48:12Z</time>
      </trkpt>
      <trkpt lat="43.47747" lon="6.56663">
        <ele>34.7</ele>
        <time>2022-04-27T15:48:20Z</time>
      </trkpt>
      <trkpt lat="43.47739" lon="6.56669">
        <ele>34.6</ele>
        <time>2022-04-27T15:49:58Z</time>
      </trkpt>
      <trkpt lat="43.47743" lon="6.56657">
        <ele>34.8</ele>
        <time>2022-04-27T15:50:53Z</time>
      </trkpt>
      <trkpt lat="43.47734" lon="6.56652">
        <ele>34.5</ele>
        <time>2022-04-27T15:51:05Z</time>
      </trkpt>
      <trkpt lat="43.47737" lon="6.5664">
        <ele>34.7</ele>
        <time>2022-04-27T15:51:15Z</time>
      </trkpt>
      <trkpt lat="43.47737" lon="6.56628">
        <ele>34.8</ele>
        <time>2022-04-27T15:51:25Z</time>
      </trkpt>
      <trkpt lat="43.47741" lon="6.56616">
        <ele>34.9</ele>
        <time>2022-04-27T15:51:36Z</time>
      </trkpt>
      <trkpt lat="43.47742" lon="6.56602">
        <ele>34.7</ele>
        <time>2022-04-27T15:51:45Z</time>
      </trkpt>
      <trkpt lat="43.47745" lon="6.56589">
        <ele>35.6</ele>
        <time>2022-04-27T15:51:56Z</time>
      </trkpt>
      <trkpt lat="43.47747" lon="6.56576">
        <ele>35.7</ele>
        <time>2022-04-27T15:52:04Z</time>
      </trkpt>
      <trkpt lat="43.47747" lon="6.56562">
        <ele>36.5</ele>
        <time>2022-04-27T15:52:14Z</time>
      </trkpt>
      <trkpt lat="43.47744" lon="6.56549">
        <ele>37.4</ele>
        <time>2022-04-27T15:52:22Z</time>
      </trkpt>
      <trkpt lat="43.47742" lon="6.56536">
        <ele>37.6</ele>
        <time>2022-04-27T15:52:30Z</time>
      </trkpt>
      <trkpt lat="43.47741" lon="6.56523">
        <ele>37.6</ele>
        <time>2022-04-27T15:52:39Z</time>
      </trkpt>
      <trkpt lat="43.47732" lon="6.56518">
        <ele>37.8</ele>
        <time>2022-04-27T15:52:47Z</time>
      </trkpt>
      <trkpt lat="43.47722" lon="6.56518">
        <ele>37.2</ele>
        <time>2022-04-27T15:52:55Z</time>
      </trkpt>
      <trkpt lat="43.47713" lon="6.5652">
        <ele>37.3</ele>
        <time>2022-04-27T15:53:04Z</time>
      </trkpt>
      <trkpt lat="43.47704" lon="6.56522">
        <ele>36.8</ele>
        <time>2022-04-27T15:53:13Z</time>
      </trkpt>
      <trkpt lat="43.47695" lon="6.56527">
        <ele>36.7</ele>
        <time>2022-04-27T15:53:20Z</time>
      </trkpt>
      <trkpt lat="43.47686" lon="6.56531">
        <ele>37</ele>
        <time>2022-04-27T15:53:30Z</time>
      </trkpt>
      <trkpt lat="43.47677" lon="6.56533">
        <ele>37.1</ele>
        <time>2022-04-27T15:53:42Z</time>
      </trkpt>
      <trkpt lat="43.47668" lon="6.56534">
        <ele>37.6</ele>
        <time>2022-04-27T15:53:52Z</time>
      </trkpt>
      <trkpt lat="43.47659" lon="6.56538">
        <ele>38.3</ele>
        <time>2022-04-27T15:54:02Z</time>
      </trkpt>
      <trkpt lat="43.47649" lon="6.56536">
        <ele>39.1</ele>
        <time>2022-04-27T15:54:12Z</time>
      </trkpt>
      <trkpt lat="43.4764" lon="6.56534">
        <ele>39.8</ele>
        <time>2022-04-27T15:54:20Z</time>
      </trkpt>
      <trkpt lat="43.47631" lon="6.56532">
        <ele>40</ele>
        <time>2022-04-27T15:54:29Z</time>
      </trkpt>
      <trkpt lat="43.47622" lon="6.56527">
        <ele>40.4</ele>
        <time>2022-04-27T15:54:39Z</time>
      </trkpt>
      <trkpt lat="43.47613" lon="6.56522">
        <ele>40.3</ele>
        <time>2022-04-27T15:54:56Z</time>
      </trkpt>
      <trkpt lat="43.47613" lon="6.5652">
        <ele>40.3</ele>
        <time>2022-04-27T15:54:58Z</time>
      </trkpt>
    </trkseg>
  </trk>
</gpx>